<?xml version="1.0" encoding="UTF-8" standalone="no" ?>
<gpx xmlns="http://www.topografix.com/GPX/1/1" xmlns:xsi="http://www.w3.org/2001/XMLSchema-instance" xsi:schemaLocation="http://www.topografix.com/GPX/1/1 http://www.topografix.com/GPX/1/1/gpx.xsd" version="1.1" creator="VisuGPX - https://www.visugpx.com">
  <metadata>
    <name>Grands, boucle du 11/12/2013</name>
    <desc><![CDATA[Boucle des Grands]]></desc>
  </metadata>
  <trk>
    <name><![CDATA[11-DEC-13 boucle des grands]]></name>
    <trkseg>
      <trkpt lat="43.00725" lon="-0.095">
        <ele>425.52</ele>
        <time>2013-12-11T14:36:51Z</time>
      </trkpt>
      <trkpt lat="43.00725" lon="-0.09501">
        <ele>424.56</ele>
        <time>2013-12-11T14:36:55Z</time>
      </trkpt>
      <trkpt lat="43.00738" lon="-0.09504">
        <ele>424.56</ele>
        <time>2013-12-11T14:37:04Z</time>
      </trkpt>
      <trkpt lat="43.00743" lon="-0.09509">
        <ele>423.6</ele>
        <time>2013-12-11T14:37:06Z</time>
      </trkpt>
      <trkpt lat="43.00757" lon="-0.09491">
        <ele>425.04</ele>
        <time>2013-12-11T14:37:15Z</time>
      </trkpt>
      <trkpt lat="43.00758" lon="-0.09488">
        <ele>424.56</ele>
        <time>2013-12-11T14:37:36Z</time>
      </trkpt>
      <trkpt lat="43.00758" lon="-0.09489">
        <ele>424.56</ele>
        <time>2013-12-11T14:37:41Z</time>
      </trkpt>
      <trkpt lat="43.00745" lon="-0.09508">
        <ele>424.08</ele>
        <time>2013-12-11T14:37:50Z</time>
      </trkpt>
      <trkpt lat="43.00714" lon="-0.09539">
        <ele>426</ele>
        <time>2013-12-11T14:38:03Z</time>
      </trkpt>
      <trkpt lat="43.0071" lon="-0.09553">
        <ele>426.48</ele>
        <time>2013-12-11T14:38:07Z</time>
      </trkpt>
      <trkpt lat="43.00707" lon="-0.09611">
        <ele>428.4</ele>
        <time>2013-12-11T14:38:23Z</time>
      </trkpt>
      <trkpt lat="43.00704" lon="-0.09662">
        <ele>428.89</ele>
        <time>2013-12-11T14:38:36Z</time>
      </trkpt>
      <trkpt lat="43.00699" lon="-0.09707">
        <ele>429.85</ele>
        <time>2013-12-11T14:38:48Z</time>
      </trkpt>
      <trkpt lat="43.00697" lon="-0.09742">
        <ele>430.81</ele>
        <time>2013-12-11T14:38:57Z</time>
      </trkpt>
      <trkpt lat="43.00699" lon="-0.09757">
        <ele>431.29</ele>
        <time>2013-12-11T14:39:01Z</time>
      </trkpt>
      <trkpt lat="43.00738" lon="-0.09769">
        <ele>430.33</ele>
        <time>2013-12-11T14:39:13Z</time>
      </trkpt>
      <trkpt lat="43.00803" lon="-0.09794">
        <ele>428.89</ele>
        <time>2013-12-11T14:39:29Z</time>
      </trkpt>
      <trkpt lat="43.00818" lon="-0.098">
        <ele>428.89</ele>
        <time>2013-12-11T14:39:33Z</time>
      </trkpt>
      <trkpt lat="43.0087" lon="-0.09822">
        <ele>427.92</ele>
        <time>2013-12-11T14:39:47Z</time>
      </trkpt>
      <trkpt lat="43.0088" lon="-0.09846">
        <ele>428.89</ele>
        <time>2013-12-11T14:39:55Z</time>
      </trkpt>
      <trkpt lat="43.0089" lon="-0.09849">
        <ele>430.81</ele>
        <time>2013-12-11T14:40:00Z</time>
      </trkpt>
      <trkpt lat="43.00877" lon="-0.09853">
        <ele>432.25</ele>
        <time>2013-12-11T14:40:10Z</time>
      </trkpt>
      <trkpt lat="43.00876" lon="-0.09853">
        <ele>432.25</ele>
        <time>2013-12-11T14:40:11Z</time>
      </trkpt>
      <trkpt lat="43.00872" lon="-0.09854">
        <ele>432.73</ele>
        <time>2013-12-11T14:40:14Z</time>
      </trkpt>
      <trkpt lat="43.00874" lon="-0.09859">
        <ele>434.65</ele>
        <time>2013-12-11T14:40:20Z</time>
      </trkpt>
      <trkpt lat="43.00877" lon="-0.0986">
        <ele>435.13</ele>
        <time>2013-12-11T14:40:22Z</time>
      </trkpt>
      <trkpt lat="43.00879" lon="-0.09864">
        <ele>435.13</ele>
        <time>2013-12-11T14:40:26Z</time>
      </trkpt>
      <trkpt lat="43.00872" lon="-0.09866">
        <ele>436.58</ele>
        <time>2013-12-11T14:40:31Z</time>
      </trkpt>
      <trkpt lat="43.00875" lon="-0.09868">
        <ele>437.06</ele>
        <time>2013-12-11T14:40:34Z</time>
      </trkpt>
      <trkpt lat="43.00877" lon="-0.09867">
        <ele>437.54</ele>
        <time>2013-12-11T14:40:36Z</time>
      </trkpt>
      <trkpt lat="43.00881" lon="-0.09871">
        <ele>438.5</ele>
        <time>2013-12-11T14:40:42Z</time>
      </trkpt>
      <trkpt lat="43.00872" lon="-0.09873">
        <ele>440.9</ele>
        <time>2013-12-11T14:40:49Z</time>
      </trkpt>
      <trkpt lat="43.0086" lon="-0.09875">
        <ele>441.86</ele>
        <time>2013-12-11T14:41:04Z</time>
      </trkpt>
      <trkpt lat="43.00859" lon="-0.09875">
        <ele>441.38</ele>
        <time>2013-12-11T14:41:13Z</time>
      </trkpt>
      <trkpt lat="43.00849" lon="-0.09878">
        <ele>441.38</ele>
        <time>2013-12-11T14:41:18Z</time>
      </trkpt>
      <trkpt lat="43.00837" lon="-0.09881">
        <ele>442.82</ele>
        <time>2013-12-11T14:41:33Z</time>
      </trkpt>
      <trkpt lat="43.00837" lon="-0.09881">
        <ele>442.82</ele>
        <time>2013-12-11T14:41:42Z</time>
      </trkpt>
      <trkpt lat="43.00831" lon="-0.09884">
        <ele>443.31</ele>
        <time>2013-12-11T14:41:46Z</time>
      </trkpt>
      <trkpt lat="43.00817" lon="-0.09897">
        <ele>443.79</ele>
        <time>2013-12-11T14:41:53Z</time>
      </trkpt>
      <trkpt lat="43.00808" lon="-0.0991">
        <ele>444.27</ele>
        <time>2013-12-11T14:41:59Z</time>
      </trkpt>
      <trkpt lat="43.00797" lon="-0.09937">
        <ele>444.75</ele>
        <time>2013-12-11T14:42:09Z</time>
      </trkpt>
      <trkpt lat="43.008" lon="-0.09956">
        <ele>446.67</ele>
        <time>2013-12-11T14:42:17Z</time>
      </trkpt>
      <trkpt lat="43.00802" lon="-0.09959">
        <ele>446.19</ele>
        <time>2013-12-11T14:42:21Z</time>
      </trkpt>
      <trkpt lat="43.00799" lon="-0.09959">
        <ele>446.67</ele>
        <time>2013-12-11T14:42:30Z</time>
      </trkpt>
      <trkpt lat="43.00799" lon="-0.09959">
        <ele>446.67</ele>
        <time>2013-12-11T14:42:47Z</time>
      </trkpt>
      <trkpt lat="43.00798" lon="-0.0996">
        <ele>446.67</ele>
        <time>2013-12-11T14:42:51Z</time>
      </trkpt>
      <trkpt lat="43.00805" lon="-0.09956">
        <ele>446.67</ele>
        <time>2013-12-11T14:42:56Z</time>
      </trkpt>
      <trkpt lat="43.00836" lon="-0.09957">
        <ele>447.15</ele>
        <time>2013-12-11T14:43:06Z</time>
      </trkpt>
      <trkpt lat="43.0085" lon="-0.09958">
        <ele>447.63</ele>
        <time>2013-12-11T14:43:11Z</time>
      </trkpt>
      <trkpt lat="43.00887" lon="-0.09956">
        <ele>448.59</ele>
        <time>2013-12-11T14:43:25Z</time>
      </trkpt>
      <trkpt lat="43.00908" lon="-0.09953">
        <ele>449.07</ele>
        <time>2013-12-11T14:43:32Z</time>
      </trkpt>
      <trkpt lat="43.00917" lon="-0.09989">
        <ele>449.07</ele>
        <time>2013-12-11T14:43:41Z</time>
      </trkpt>
      <trkpt lat="43.00915" lon="-0.09998">
        <ele>449.07</ele>
        <time>2013-12-11T14:43:43Z</time>
      </trkpt>
      <trkpt lat="43.00932" lon="-0.10045">
        <ele>450.52</ele>
        <time>2013-12-11T14:43:56Z</time>
      </trkpt>
      <trkpt lat="43.00932" lon="-0.10069">
        <ele>452.92</ele>
        <time>2013-12-11T14:44:05Z</time>
      </trkpt>
      <trkpt lat="43.00929" lon="-0.1008">
        <ele>455.32</ele>
        <time>2013-12-11T14:44:10Z</time>
      </trkpt>
      <trkpt lat="43.00925" lon="-0.10102">
        <ele>458.21</ele>
        <time>2013-12-11T14:44:19Z</time>
      </trkpt>
      <trkpt lat="43.00904" lon="-0.10122">
        <ele>460.13</ele>
        <time>2013-12-11T14:44:33Z</time>
      </trkpt>
      <trkpt lat="43.00885" lon="-0.10145">
        <ele>463.01</ele>
        <time>2013-12-11T14:44:46Z</time>
      </trkpt>
      <trkpt lat="43.00882" lon="-0.10148">
        <ele>464.45</ele>
        <time>2013-12-11T14:44:48Z</time>
      </trkpt>
      <trkpt lat="43.00869" lon="-0.10163">
        <ele>465.9</ele>
        <time>2013-12-11T14:44:59Z</time>
      </trkpt>
      <trkpt lat="43.0085" lon="-0.10175">
        <ele>466.86</ele>
        <time>2013-12-11T14:45:09Z</time>
      </trkpt>
      <trkpt lat="43.00842" lon="-0.1018">
        <ele>468.3</ele>
        <time>2013-12-11T14:45:14Z</time>
      </trkpt>
      <trkpt lat="43.00838" lon="-0.10183">
        <ele>468.78</ele>
        <time>2013-12-11T14:45:17Z</time>
      </trkpt>
      <trkpt lat="43.00812" lon="-0.10193">
        <ele>470.22</ele>
        <time>2013-12-11T14:45:29Z</time>
      </trkpt>
      <trkpt lat="43.00807" lon="-0.10194">
        <ele>470.7</ele>
        <time>2013-12-11T14:45:31Z</time>
      </trkpt>
      <trkpt lat="43.00775" lon="-0.10217">
        <ele>472.63</ele>
        <time>2013-12-11T14:45:46Z</time>
      </trkpt>
      <trkpt lat="43.00748" lon="-0.1024">
        <ele>475.03</ele>
        <time>2013-12-11T14:46:00Z</time>
      </trkpt>
      <trkpt lat="43.00723" lon="-0.10256">
        <ele>475.51</ele>
        <time>2013-12-11T14:46:14Z</time>
      </trkpt>
      <trkpt lat="43.00694" lon="-0.10264">
        <ele>476.95</ele>
        <time>2013-12-11T14:46:27Z</time>
      </trkpt>
      <trkpt lat="43.00668" lon="-0.10269">
        <ele>476.95</ele>
        <time>2013-12-11T14:46:37Z</time>
      </trkpt>
      <trkpt lat="43.00664" lon="-0.10282">
        <ele>477.43</ele>
        <time>2013-12-11T14:46:42Z</time>
      </trkpt>
      <trkpt lat="43.0065" lon="-0.1028">
        <ele>477.43</ele>
        <time>2013-12-11T14:46:49Z</time>
      </trkpt>
      <trkpt lat="43.00624" lon="-0.10293">
        <ele>478.39</ele>
        <time>2013-12-11T14:47:01Z</time>
      </trkpt>
      <trkpt lat="43.00607" lon="-0.10322">
        <ele>481.76</ele>
        <time>2013-12-11T14:47:14Z</time>
      </trkpt>
      <trkpt lat="43.00592" lon="-0.10348">
        <ele>485.12</ele>
        <time>2013-12-11T14:47:28Z</time>
      </trkpt>
      <trkpt lat="43.0059" lon="-0.10351">
        <ele>485.12</ele>
        <time>2013-12-11T14:47:30Z</time>
      </trkpt>
      <trkpt lat="43.00588" lon="-0.10354">
        <ele>485.6</ele>
        <time>2013-12-11T14:47:32Z</time>
      </trkpt>
      <trkpt lat="43.00583" lon="-0.10364">
        <ele>487.05</ele>
        <time>2013-12-11T14:47:37Z</time>
      </trkpt>
      <trkpt lat="43.00568" lon="-0.1039">
        <ele>490.41</ele>
        <time>2013-12-11T14:47:52Z</time>
      </trkpt>
      <trkpt lat="43.00564" lon="-0.10397">
        <ele>491.37</ele>
        <time>2013-12-11T14:47:56Z</time>
      </trkpt>
      <trkpt lat="43.00559" lon="-0.10412">
        <ele>494.26</ele>
        <time>2013-12-11T14:48:05Z</time>
      </trkpt>
      <trkpt lat="43.00556" lon="-0.10421">
        <ele>494.74</ele>
        <time>2013-12-11T14:48:10Z</time>
      </trkpt>
      <trkpt lat="43.00545" lon="-0.10442">
        <ele>497.62</ele>
        <time>2013-12-11T14:48:23Z</time>
      </trkpt>
      <trkpt lat="43.00536" lon="-0.1046">
        <ele>500.5</ele>
        <time>2013-12-11T14:48:35Z</time>
      </trkpt>
      <trkpt lat="43.00523" lon="-0.10474">
        <ele>502.43</ele>
        <time>2013-12-11T14:48:46Z</time>
      </trkpt>
      <trkpt lat="43.00512" lon="-0.1048">
        <ele>503.87</ele>
        <time>2013-12-11T14:48:54Z</time>
      </trkpt>
      <trkpt lat="43.00501" lon="-0.10487">
        <ele>505.31</ele>
        <time>2013-12-11T14:49:01Z</time>
      </trkpt>
      <trkpt lat="43.00492" lon="-0.10493">
        <ele>505.79</ele>
        <time>2013-12-11T14:49:08Z</time>
      </trkpt>
      <trkpt lat="43.00468" lon="-0.10509">
        <ele>507.23</ele>
        <time>2013-12-11T14:49:23Z</time>
      </trkpt>
      <trkpt lat="43.0044" lon="-0.10539">
        <ele>508.19</ele>
        <time>2013-12-11T14:49:40Z</time>
      </trkpt>
      <trkpt lat="43.00436" lon="-0.10547">
        <ele>508.67</ele>
        <time>2013-12-11T14:49:45Z</time>
      </trkpt>
      <trkpt lat="43.00454" lon="-0.10533">
        <ele>509.64</ele>
        <time>2013-12-11T14:49:56Z</time>
      </trkpt>
      <trkpt lat="43.00483" lon="-0.10514">
        <ele>512.52</ele>
        <time>2013-12-11T14:50:12Z</time>
      </trkpt>
      <trkpt lat="43.00501" lon="-0.1052">
        <ele>513.96</ele>
        <time>2013-12-11T14:50:23Z</time>
      </trkpt>
      <trkpt lat="43.00515" lon="-0.10519">
        <ele>515.88</ele>
        <time>2013-12-11T14:50:30Z</time>
      </trkpt>
      <trkpt lat="43.00532" lon="-0.10524">
        <ele>516.85</ele>
        <time>2013-12-11T14:50:40Z</time>
      </trkpt>
      <trkpt lat="43.0056" lon="-0.10527">
        <ele>520.69</ele>
        <time>2013-12-11T14:50:56Z</time>
      </trkpt>
      <trkpt lat="43.00586" lon="-0.10516">
        <ele>523.09</ele>
        <time>2013-12-11T14:51:12Z</time>
      </trkpt>
      <trkpt lat="43.00602" lon="-0.10486">
        <ele>525.5</ele>
        <time>2013-12-11T14:51:26Z</time>
      </trkpt>
      <trkpt lat="43.00614" lon="-0.10468">
        <ele>526.94</ele>
        <time>2013-12-11T14:51:36Z</time>
      </trkpt>
      <trkpt lat="43.00635" lon="-0.10467">
        <ele>529.82</ele>
        <time>2013-12-11T14:51:51Z</time>
      </trkpt>
      <trkpt lat="43.00653" lon="-0.10467">
        <ele>531.27</ele>
        <time>2013-12-11T14:52:01Z</time>
      </trkpt>
      <trkpt lat="43.00673" lon="-0.10466">
        <ele>533.19</ele>
        <time>2013-12-11T14:52:12Z</time>
      </trkpt>
      <trkpt lat="43.00683" lon="-0.10464">
        <ele>534.15</ele>
        <time>2013-12-11T14:52:17Z</time>
      </trkpt>
      <trkpt lat="43.00695" lon="-0.10461">
        <ele>535.11</ele>
        <time>2013-12-11T14:52:23Z</time>
      </trkpt>
      <trkpt lat="43.0072" lon="-0.10453">
        <ele>537.51</ele>
        <time>2013-12-11T14:52:37Z</time>
      </trkpt>
      <trkpt lat="43.00728" lon="-0.1045">
        <ele>538.48</ele>
        <time>2013-12-11T14:52:41Z</time>
      </trkpt>
      <trkpt lat="43.00761" lon="-0.10462">
        <ele>541.36</ele>
        <time>2013-12-11T14:52:57Z</time>
      </trkpt>
      <trkpt lat="43.00798" lon="-0.10468">
        <ele>543.76</ele>
        <time>2013-12-11T14:53:15Z</time>
      </trkpt>
      <trkpt lat="43.00826" lon="-0.10465">
        <ele>546.17</ele>
        <time>2013-12-11T14:53:30Z</time>
      </trkpt>
      <trkpt lat="43.00857" lon="-0.1047">
        <ele>549.05</ele>
        <time>2013-12-11T14:53:46Z</time>
      </trkpt>
      <trkpt lat="43.00875" lon="-0.105">
        <ele>551.45</ele>
        <time>2013-12-11T14:54:01Z</time>
      </trkpt>
      <trkpt lat="43.00883" lon="-0.10534">
        <ele>554.82</ele>
        <time>2013-12-11T14:54:15Z</time>
      </trkpt>
      <trkpt lat="43.00892" lon="-0.10575">
        <ele>557.22</ele>
        <time>2013-12-11T14:54:32Z</time>
      </trkpt>
      <trkpt lat="43.00887" lon="-0.10604">
        <ele>558.18</ele>
        <time>2013-12-11T14:54:43Z</time>
      </trkpt>
      <trkpt lat="43.00882" lon="-0.10638">
        <ele>558.66</ele>
        <time>2013-12-11T14:54:55Z</time>
      </trkpt>
      <trkpt lat="43.00881" lon="-0.10657">
        <ele>559.14</ele>
        <time>2013-12-11T14:55:01Z</time>
      </trkpt>
      <trkpt lat="43.00886" lon="-0.10697">
        <ele>561.07</ele>
        <time>2013-12-11T14:55:16Z</time>
      </trkpt>
      <trkpt lat="43.00893" lon="-0.10728">
        <ele>562.51</ele>
        <time>2013-12-11T14:55:29Z</time>
      </trkpt>
      <trkpt lat="43.00895" lon="-0.10733">
        <ele>562.99</ele>
        <time>2013-12-11T14:55:31Z</time>
      </trkpt>
      <trkpt lat="43.00886" lon="-0.10746">
        <ele>563.95</ele>
        <time>2013-12-11T14:55:38Z</time>
      </trkpt>
      <trkpt lat="43.00864" lon="-0.10745">
        <ele>565.87</ele>
        <time>2013-12-11T14:55:50Z</time>
      </trkpt>
      <trkpt lat="43.00845" lon="-0.10742">
        <ele>569.72</ele>
        <time>2013-12-11T14:56:02Z</time>
      </trkpt>
      <trkpt lat="43.00845" lon="-0.10746">
        <ele>570.2</ele>
        <time>2013-12-11T14:56:06Z</time>
      </trkpt>
      <trkpt lat="43.00853" lon="-0.10749">
        <ele>571.64</ele>
        <time>2013-12-11T14:56:13Z</time>
      </trkpt>
      <trkpt lat="43.00867" lon="-0.10765">
        <ele>574.04</ele>
        <time>2013-12-11T14:56:27Z</time>
      </trkpt>
      <trkpt lat="43.0087" lon="-0.10774">
        <ele>575.49</ele>
        <time>2013-12-11T14:56:34Z</time>
      </trkpt>
      <trkpt lat="43.00881" lon="-0.10786">
        <ele>577.41</ele>
        <time>2013-12-11T14:56:46Z</time>
      </trkpt>
      <trkpt lat="43.00891" lon="-0.108">
        <ele>579.33</ele>
        <time>2013-12-11T14:56:54Z</time>
      </trkpt>
      <trkpt lat="43.00893" lon="-0.10806">
        <ele>579.81</ele>
        <time>2013-12-11T14:56:58Z</time>
      </trkpt>
      <trkpt lat="43.00915" lon="-0.10824">
        <ele>582.22</ele>
        <time>2013-12-11T14:57:11Z</time>
      </trkpt>
      <trkpt lat="43.00916" lon="-0.10826">
        <ele>582.22</ele>
        <time>2013-12-11T14:57:12Z</time>
      </trkpt>
      <trkpt lat="43.00922" lon="-0.1083">
        <ele>583.18</ele>
        <time>2013-12-11T14:57:18Z</time>
      </trkpt>
      <trkpt lat="43.00929" lon="-0.10842">
        <ele>586.06</ele>
        <time>2013-12-11T14:57:27Z</time>
      </trkpt>
      <trkpt lat="43.00945" lon="-0.10849">
        <ele>587.98</ele>
        <time>2013-12-11T14:57:37Z</time>
      </trkpt>
      <trkpt lat="43.00966" lon="-0.10863">
        <ele>590.39</ele>
        <time>2013-12-11T14:57:49Z</time>
      </trkpt>
      <trkpt lat="43.00971" lon="-0.10865">
        <ele>590.87</ele>
        <time>2013-12-11T14:57:52Z</time>
      </trkpt>
      <trkpt lat="43.00975" lon="-0.10869">
        <ele>592.79</ele>
        <time>2013-12-11T14:57:58Z</time>
      </trkpt>
      <trkpt lat="43.01001" lon="-0.1088">
        <ele>594.71</ele>
        <time>2013-12-11T14:58:10Z</time>
      </trkpt>
      <trkpt lat="43.01006" lon="-0.10885">
        <ele>594.71</ele>
        <time>2013-12-11T14:58:14Z</time>
      </trkpt>
      <trkpt lat="43.01008" lon="-0.10897">
        <ele>596.15</ele>
        <time>2013-12-11T14:58:22Z</time>
      </trkpt>
      <trkpt lat="43.01016" lon="-0.1089">
        <ele>594.71</ele>
        <time>2013-12-11T14:58:27Z</time>
      </trkpt>
      <trkpt lat="43.0102" lon="-0.10896">
        <ele>594.23</ele>
        <time>2013-12-11T14:58:32Z</time>
      </trkpt>
      <trkpt lat="43.01018" lon="-0.10895">
        <ele>594.71</ele>
        <time>2013-12-11T14:58:34Z</time>
      </trkpt>
      <trkpt lat="43.01013" lon="-0.10891">
        <ele>594.71</ele>
        <time>2013-12-11T14:58:42Z</time>
      </trkpt>
      <trkpt lat="43.01013" lon="-0.10895">
        <ele>595.67</ele>
        <time>2013-12-11T14:58:53Z</time>
      </trkpt>
      <trkpt lat="43.01012" lon="-0.10895">
        <ele>595.19</ele>
        <time>2013-12-11T14:59:14Z</time>
      </trkpt>
      <trkpt lat="43.01016" lon="-0.10897">
        <ele>595.67</ele>
        <time>2013-12-11T14:59:25Z</time>
      </trkpt>
      <trkpt lat="43.01025" lon="-0.10889">
        <ele>594.23</ele>
        <time>2013-12-11T14:59:31Z</time>
      </trkpt>
      <trkpt lat="43.01029" lon="-0.109">
        <ele>594.23</ele>
        <time>2013-12-11T14:59:37Z</time>
      </trkpt>
      <trkpt lat="43.01042" lon="-0.10919">
        <ele>596.15</ele>
        <time>2013-12-11T14:59:49Z</time>
      </trkpt>
      <trkpt lat="43.01045" lon="-0.10924">
        <ele>596.64</ele>
        <time>2013-12-11T14:59:54Z</time>
      </trkpt>
      <trkpt lat="43.01053" lon="-0.10936">
        <ele>598.08</ele>
        <time>2013-12-11T15:00:04Z</time>
      </trkpt>
      <trkpt lat="43.01062" lon="-0.10946">
        <ele>599.04</ele>
        <time>2013-12-11T15:00:11Z</time>
      </trkpt>
      <trkpt lat="43.01078" lon="-0.10961">
        <ele>600</ele>
        <time>2013-12-11T15:00:21Z</time>
      </trkpt>
      <trkpt lat="43.01083" lon="-0.10968">
        <ele>600</ele>
        <time>2013-12-11T15:00:24Z</time>
      </trkpt>
      <trkpt lat="43.01104" lon="-0.10996">
        <ele>601.44</ele>
        <time>2013-12-11T15:00:38Z</time>
      </trkpt>
      <trkpt lat="43.01122" lon="-0.11045">
        <ele>603.36</ele>
        <time>2013-12-11T15:00:54Z</time>
      </trkpt>
      <trkpt lat="43.01143" lon="-0.11072">
        <ele>604.33</ele>
        <time>2013-12-11T15:01:07Z</time>
      </trkpt>
      <trkpt lat="43.01175" lon="-0.11079">
        <ele>606.73</ele>
        <time>2013-12-11T15:01:22Z</time>
      </trkpt>
      <trkpt lat="43.012" lon="-0.11055">
        <ele>608.17</ele>
        <time>2013-12-11T15:01:37Z</time>
      </trkpt>
      <trkpt lat="43.01213" lon="-0.11056">
        <ele>608.65</ele>
        <time>2013-12-11T15:01:44Z</time>
      </trkpt>
      <trkpt lat="43.01225" lon="-0.11043">
        <ele>611.06</ele>
        <time>2013-12-11T15:01:54Z</time>
      </trkpt>
      <trkpt lat="43.0124" lon="-0.11015">
        <ele>612.02</ele>
        <time>2013-12-11T15:02:06Z</time>
      </trkpt>
      <trkpt lat="43.01258" lon="-0.10994">
        <ele>610.57</ele>
        <time>2013-12-11T15:02:18Z</time>
      </trkpt>
      <trkpt lat="43.01264" lon="-0.10983">
        <ele>609.13</ele>
        <time>2013-12-11T15:02:22Z</time>
      </trkpt>
      <trkpt lat="43.01262" lon="-0.10955">
        <ele>607.21</ele>
        <time>2013-12-11T15:02:32Z</time>
      </trkpt>
      <trkpt lat="43.01264" lon="-0.10952">
        <ele>607.21</ele>
        <time>2013-12-11T15:02:33Z</time>
      </trkpt>
      <trkpt lat="43.01283" lon="-0.10937">
        <ele>606.73</ele>
        <time>2013-12-11T15:02:39Z</time>
      </trkpt>
      <trkpt lat="43.01304" lon="-0.10911">
        <ele>606.25</ele>
        <time>2013-12-11T15:02:46Z</time>
      </trkpt>
      <trkpt lat="43.01308" lon="-0.10901">
        <ele>606.25</ele>
        <time>2013-12-11T15:02:48Z</time>
      </trkpt>
      <trkpt lat="43.01314" lon="-0.10884">
        <ele>605.77</ele>
        <time>2013-12-11T15:02:51Z</time>
      </trkpt>
      <trkpt lat="43.01335" lon="-0.10822">
        <ele>602.88</ele>
        <time>2013-12-11T15:03:02Z</time>
      </trkpt>
      <trkpt lat="43.01339" lon="-0.1076">
        <ele>600.48</ele>
        <time>2013-12-11T15:03:10Z</time>
      </trkpt>
      <trkpt lat="43.01344" lon="-0.10734">
        <ele>600</ele>
        <time>2013-12-11T15:03:14Z</time>
      </trkpt>
      <trkpt lat="43.01378" lon="-0.10655">
        <ele>599.52</ele>
        <time>2013-12-11T15:03:29Z</time>
      </trkpt>
      <trkpt lat="43.01402" lon="-0.10606">
        <ele>601.44</ele>
        <time>2013-12-11T15:03:42Z</time>
      </trkpt>
      <trkpt lat="43.01428" lon="-0.10568">
        <ele>603.36</ele>
        <time>2013-12-11T15:03:54Z</time>
      </trkpt>
      <trkpt lat="43.01456" lon="-0.10529">
        <ele>603.36</ele>
        <time>2013-12-11T15:04:06Z</time>
      </trkpt>
      <trkpt lat="43.01481" lon="-0.10496">
        <ele>602.4</ele>
        <time>2013-12-11T15:04:17Z</time>
      </trkpt>
      <trkpt lat="43.01503" lon="-0.10467">
        <ele>600.96</ele>
        <time>2013-12-11T15:04:24Z</time>
      </trkpt>
      <trkpt lat="43.0151" lon="-0.10458">
        <ele>600</ele>
        <time>2013-12-11T15:04:27Z</time>
      </trkpt>
      <trkpt lat="43.01509" lon="-0.10451">
        <ele>599.52</ele>
        <time>2013-12-11T15:04:37Z</time>
      </trkpt>
      <trkpt lat="43.01508" lon="-0.1045">
        <ele>599.52</ele>
        <time>2013-12-11T15:05:08Z</time>
      </trkpt>
      <trkpt lat="43.01509" lon="-0.10452">
        <ele>600</ele>
        <time>2013-12-11T15:05:30Z</time>
      </trkpt>
      <trkpt lat="43.01505" lon="-0.10446">
        <ele>599.52</ele>
        <time>2013-12-11T15:05:39Z</time>
      </trkpt>
      <trkpt lat="43.01516" lon="-0.10432">
        <ele>595.67</ele>
        <time>2013-12-11T15:05:45Z</time>
      </trkpt>
      <trkpt lat="43.0152" lon="-0.10427">
        <ele>595.19</ele>
        <time>2013-12-11T15:05:47Z</time>
      </trkpt>
      <trkpt lat="43.01521" lon="-0.10424">
        <ele>594.23</ele>
        <time>2013-12-11T15:05:48Z</time>
      </trkpt>
      <trkpt lat="43.0153" lon="-0.10415">
        <ele>593.27</ele>
        <time>2013-12-11T15:05:50Z</time>
      </trkpt>
      <trkpt lat="43.01539" lon="-0.10399">
        <ele>589.43</ele>
        <time>2013-12-11T15:05:53Z</time>
      </trkpt>
      <trkpt lat="43.01541" lon="-0.10393">
        <ele>587.5</ele>
        <time>2013-12-11T15:05:54Z</time>
      </trkpt>
      <trkpt lat="43.01546" lon="-0.10377">
        <ele>583.18</ele>
        <time>2013-12-11T15:05:57Z</time>
      </trkpt>
      <trkpt lat="43.01548" lon="-0.10369">
        <ele>579.81</ele>
        <time>2013-12-11T15:05:59Z</time>
      </trkpt>
      <trkpt lat="43.01555" lon="-0.10355">
        <ele>576.93</ele>
        <time>2013-12-11T15:06:03Z</time>
      </trkpt>
      <trkpt lat="43.01557" lon="-0.10352">
        <ele>576.45</ele>
        <time>2013-12-11T15:06:04Z</time>
      </trkpt>
      <trkpt lat="43.01583" lon="-0.10347">
        <ele>579.33</ele>
        <time>2013-12-11T15:06:11Z</time>
      </trkpt>
      <trkpt lat="43.0159" lon="-0.10345">
        <ele>580.77</ele>
        <time>2013-12-11T15:06:13Z</time>
      </trkpt>
      <trkpt lat="43.01605" lon="-0.10338">
        <ele>582.22</ele>
        <time>2013-12-11T15:06:20Z</time>
      </trkpt>
      <trkpt lat="43.01626" lon="-0.10326">
        <ele>581.25</ele>
        <time>2013-12-11T15:06:29Z</time>
      </trkpt>
      <trkpt lat="43.01652" lon="-0.1031">
        <ele>576.45</ele>
        <time>2013-12-11T15:06:37Z</time>
      </trkpt>
      <trkpt lat="43.01664" lon="-0.10289">
        <ele>572.6</ele>
        <time>2013-12-11T15:06:41Z</time>
      </trkpt>
      <trkpt lat="43.01667" lon="-0.10282">
        <ele>571.16</ele>
        <time>2013-12-11T15:06:42Z</time>
      </trkpt>
      <trkpt lat="43.01673" lon="-0.10269">
        <ele>569.24</ele>
        <time>2013-12-11T15:06:44Z</time>
      </trkpt>
      <trkpt lat="43.01695" lon="-0.10241">
        <ele>566.35</ele>
        <time>2013-12-11T15:06:53Z</time>
      </trkpt>
      <trkpt lat="43.01699" lon="-0.1024">
        <ele>565.39</ele>
        <time>2013-12-11T15:06:54Z</time>
      </trkpt>
      <trkpt lat="43.01708" lon="-0.10232">
        <ele>564.43</ele>
        <time>2013-12-11T15:06:57Z</time>
      </trkpt>
      <trkpt lat="43.01716" lon="-0.10222">
        <ele>560.59</ele>
        <time>2013-12-11T15:07:03Z</time>
      </trkpt>
      <trkpt lat="43.01719" lon="-0.10219">
        <ele>560.11</ele>
        <time>2013-12-11T15:07:05Z</time>
      </trkpt>
      <trkpt lat="43.0172" lon="-0.10216">
        <ele>558.18</ele>
        <time>2013-12-11T15:07:07Z</time>
      </trkpt>
      <trkpt lat="43.01728" lon="-0.10216">
        <ele>556.26</ele>
        <time>2013-12-11T15:07:10Z</time>
      </trkpt>
      <trkpt lat="43.01738" lon="-0.10216">
        <ele>551.93</ele>
        <time>2013-12-11T15:07:13Z</time>
      </trkpt>
      <trkpt lat="43.01742" lon="-0.10217">
        <ele>550.49</ele>
        <time>2013-12-11T15:07:14Z</time>
      </trkpt>
      <trkpt lat="43.01752" lon="-0.10221">
        <ele>547.61</ele>
        <time>2013-12-11T15:07:17Z</time>
      </trkpt>
      <trkpt lat="43.01758" lon="-0.1022">
        <ele>545.2</ele>
        <time>2013-12-11T15:07:20Z</time>
      </trkpt>
      <trkpt lat="43.01761" lon="-0.10215">
        <ele>543.28</ele>
        <time>2013-12-11T15:07:22Z</time>
      </trkpt>
      <trkpt lat="43.01773" lon="-0.10224">
        <ele>538.48</ele>
        <time>2013-12-11T15:07:27Z</time>
      </trkpt>
      <trkpt lat="43.01804" lon="-0.10229">
        <ele>532.71</ele>
        <time>2013-12-11T15:07:34Z</time>
      </trkpt>
      <trkpt lat="43.0181" lon="-0.10215">
        <ele>530.3</ele>
        <time>2013-12-11T15:07:38Z</time>
      </trkpt>
      <trkpt lat="43.0181" lon="-0.1018">
        <ele>524.06</ele>
        <time>2013-12-11T15:07:43Z</time>
      </trkpt>
      <trkpt lat="43.0181" lon="-0.10172">
        <ele>522.61</ele>
        <time>2013-12-11T15:07:44Z</time>
      </trkpt>
      <trkpt lat="43.01811" lon="-0.10142">
        <ele>518.77</ele>
        <time>2013-12-11T15:07:48Z</time>
      </trkpt>
      <trkpt lat="43.01813" lon="-0.10131">
        <ele>516.37</ele>
        <time>2013-12-11T15:07:50Z</time>
      </trkpt>
      <trkpt lat="43.01829" lon="-0.1012">
        <ele>515.4</ele>
        <time>2013-12-11T15:08:00Z</time>
      </trkpt>
      <trkpt lat="43.01834" lon="-0.1012">
        <ele>515.4</ele>
        <time>2013-12-11T15:08:26Z</time>
      </trkpt>
      <trkpt lat="43.01837" lon="-0.10118">
        <ele>515.88</ele>
        <time>2013-12-11T15:08:55Z</time>
      </trkpt>
      <trkpt lat="43.01838" lon="-0.10117">
        <ele>515.88</ele>
        <time>2013-12-11T15:09:20Z</time>
      </trkpt>
      <trkpt lat="43.0184" lon="-0.10117">
        <ele>516.37</ele>
        <time>2013-12-11T15:09:43Z</time>
      </trkpt>
      <trkpt lat="43.01841" lon="-0.10116">
        <ele>516.37</ele>
        <time>2013-12-11T15:10:05Z</time>
      </trkpt>
      <trkpt lat="43.01842" lon="-0.10115">
        <ele>516.37</ele>
        <time>2013-12-11T15:10:15Z</time>
      </trkpt>
      <trkpt lat="43.01859" lon="-0.10112">
        <ele>516.37</ele>
        <time>2013-12-11T15:10:25Z</time>
      </trkpt>
      <trkpt lat="43.01865" lon="-0.10113">
        <ele>515.88</ele>
        <time>2013-12-11T15:10:27Z</time>
      </trkpt>
      <trkpt lat="43.01873" lon="-0.10112">
        <ele>515.4</ele>
        <time>2013-12-11T15:10:29Z</time>
      </trkpt>
      <trkpt lat="43.01881" lon="-0.10114">
        <ele>514.92</ele>
        <time>2013-12-11T15:10:31Z</time>
      </trkpt>
      <trkpt lat="43.01913" lon="-0.10136">
        <ele>511.56</ele>
        <time>2013-12-11T15:10:38Z</time>
      </trkpt>
      <trkpt lat="43.01937" lon="-0.10153">
        <ele>509.64</ele>
        <time>2013-12-11T15:10:42Z</time>
      </trkpt>
      <trkpt lat="43.01947" lon="-0.10158">
        <ele>508.67</ele>
        <time>2013-12-11T15:10:44Z</time>
      </trkpt>
      <trkpt lat="43.01953" lon="-0.10161">
        <ele>508.67</ele>
        <time>2013-12-11T15:10:45Z</time>
      </trkpt>
      <trkpt lat="43.0198" lon="-0.10155">
        <ele>506.27</ele>
        <time>2013-12-11T15:10:51Z</time>
      </trkpt>
      <trkpt lat="43.02001" lon="-0.10151">
        <ele>502.91</ele>
        <time>2013-12-11T15:10:55Z</time>
      </trkpt>
      <trkpt lat="43.02008" lon="-0.10153">
        <ele>501.95</ele>
        <time>2013-12-11T15:10:56Z</time>
      </trkpt>
      <trkpt lat="43.02037" lon="-0.10164">
        <ele>498.58</ele>
        <time>2013-12-11T15:11:00Z</time>
      </trkpt>
      <trkpt lat="43.02065" lon="-0.10149">
        <ele>492.81</ele>
        <time>2013-12-11T15:11:04Z</time>
      </trkpt>
      <trkpt lat="43.02085" lon="-0.10154">
        <ele>491.37</ele>
        <time>2013-12-11T15:11:07Z</time>
      </trkpt>
      <trkpt lat="43.02109" lon="-0.10187">
        <ele>487.53</ele>
        <time>2013-12-11T15:11:12Z</time>
      </trkpt>
      <trkpt lat="43.02138" lon="-0.10194">
        <ele>484.64</ele>
        <time>2013-12-11T15:11:16Z</time>
      </trkpt>
      <trkpt lat="43.02161" lon="-0.10192">
        <ele>488.49</ele>
        <time>2013-12-11T15:11:20Z</time>
      </trkpt>
      <trkpt lat="43.02165" lon="-0.10193">
        <ele>488.01</ele>
        <time>2013-12-11T15:11:21Z</time>
      </trkpt>
      <trkpt lat="43.02172" lon="-0.10211">
        <ele>490.89</ele>
        <time>2013-12-11T15:11:28Z</time>
      </trkpt>
      <trkpt lat="43.02173" lon="-0.10219">
        <ele>491.37</ele>
        <time>2013-12-11T15:11:31Z</time>
      </trkpt>
      <trkpt lat="43.02186" lon="-0.10225">
        <ele>492.81</ele>
        <time>2013-12-11T15:11:43Z</time>
      </trkpt>
      <trkpt lat="43.02194" lon="-0.10225">
        <ele>493.29</ele>
        <time>2013-12-11T15:11:50Z</time>
      </trkpt>
      <trkpt lat="43.02203" lon="-0.10228">
        <ele>493.77</ele>
        <time>2013-12-11T15:11:57Z</time>
      </trkpt>
      <trkpt lat="43.02215" lon="-0.10236">
        <ele>493.77</ele>
        <time>2013-12-11T15:12:08Z</time>
      </trkpt>
      <trkpt lat="43.02217" lon="-0.10237">
        <ele>493.77</ele>
        <time>2013-12-11T15:12:09Z</time>
      </trkpt>
      <trkpt lat="43.02221" lon="-0.10243">
        <ele>493.77</ele>
        <time>2013-12-11T15:12:13Z</time>
      </trkpt>
      <trkpt lat="43.02234" lon="-0.10259">
        <ele>493.77</ele>
        <time>2013-12-11T15:12:22Z</time>
      </trkpt>
      <trkpt lat="43.02243" lon="-0.1027">
        <ele>493.29</ele>
        <time>2013-12-11T15:12:28Z</time>
      </trkpt>
      <trkpt lat="43.0225" lon="-0.10275">
        <ele>494.74</ele>
        <time>2013-12-11T15:12:33Z</time>
      </trkpt>
      <trkpt lat="43.02259" lon="-0.10277">
        <ele>494.74</ele>
        <time>2013-12-11T15:12:38Z</time>
      </trkpt>
      <trkpt lat="43.0226" lon="-0.1028">
        <ele>495.22</ele>
        <time>2013-12-11T15:12:40Z</time>
      </trkpt>
      <trkpt lat="43.02264" lon="-0.10281">
        <ele>496.18</ele>
        <time>2013-12-11T15:12:44Z</time>
      </trkpt>
      <trkpt lat="43.02274" lon="-0.10285">
        <ele>496.18</ele>
        <time>2013-12-11T15:12:48Z</time>
      </trkpt>
      <trkpt lat="43.02287" lon="-0.10283">
        <ele>497.62</ele>
        <time>2013-12-11T15:12:58Z</time>
      </trkpt>
      <trkpt lat="43.02286" lon="-0.10283">
        <ele>497.62</ele>
        <time>2013-12-11T15:13:16Z</time>
      </trkpt>
      <trkpt lat="43.02282" lon="-0.10285">
        <ele>498.1</ele>
        <time>2013-12-11T15:13:41Z</time>
      </trkpt>
      <trkpt lat="43.02284" lon="-0.10285">
        <ele>497.14</ele>
        <time>2013-12-11T15:13:56Z</time>
      </trkpt>
      <trkpt lat="43.02285" lon="-0.10285">
        <ele>497.14</ele>
        <time>2013-12-11T15:14:28Z</time>
      </trkpt>
      <trkpt lat="43.02285" lon="-0.10283">
        <ele>497.62</ele>
        <time>2013-12-11T15:14:45Z</time>
      </trkpt>
      <trkpt lat="43.02294" lon="-0.10276">
        <ele>497.14</ele>
        <time>2013-12-11T15:14:50Z</time>
      </trkpt>
      <trkpt lat="43.02319" lon="-0.10264">
        <ele>495.7</ele>
        <time>2013-12-11T15:14:56Z</time>
      </trkpt>
      <trkpt lat="43.02325" lon="-0.10261">
        <ele>496.18</ele>
        <time>2013-12-11T15:14:57Z</time>
      </trkpt>
      <trkpt lat="43.02348" lon="-0.10248">
        <ele>497.62</ele>
        <time>2013-12-11T15:15:02Z</time>
      </trkpt>
      <trkpt lat="43.02351" lon="-0.10249">
        <ele>497.62</ele>
        <time>2013-12-11T15:15:03Z</time>
      </trkpt>
      <trkpt lat="43.02362" lon="-0.10253">
        <ele>497.62</ele>
        <time>2013-12-11T15:15:06Z</time>
      </trkpt>
      <trkpt lat="43.02371" lon="-0.10258">
        <ele>497.62</ele>
        <time>2013-12-11T15:15:08Z</time>
      </trkpt>
      <trkpt lat="43.02375" lon="-0.1026">
        <ele>497.14</ele>
        <time>2013-12-11T15:15:09Z</time>
      </trkpt>
      <trkpt lat="43.02379" lon="-0.10262">
        <ele>497.62</ele>
        <time>2013-12-11T15:15:10Z</time>
      </trkpt>
      <trkpt lat="43.02383" lon="-0.10263">
        <ele>498.1</ele>
        <time>2013-12-11T15:15:11Z</time>
      </trkpt>
      <trkpt lat="43.02388" lon="-0.10264">
        <ele>497.14</ele>
        <time>2013-12-11T15:15:12Z</time>
      </trkpt>
      <trkpt lat="43.02394" lon="-0.10264">
        <ele>496.66</ele>
        <time>2013-12-11T15:15:13Z</time>
      </trkpt>
      <trkpt lat="43.02399" lon="-0.10261">
        <ele>496.18</ele>
        <time>2013-12-11T15:15:14Z</time>
      </trkpt>
      <trkpt lat="43.02405" lon="-0.10256">
        <ele>494.74</ele>
        <time>2013-12-11T15:15:15Z</time>
      </trkpt>
      <trkpt lat="43.0241" lon="-0.10249">
        <ele>493.77</ele>
        <time>2013-12-11T15:15:16Z</time>
      </trkpt>
      <trkpt lat="43.02415" lon="-0.10243">
        <ele>491.85</ele>
        <time>2013-12-11T15:15:17Z</time>
      </trkpt>
      <trkpt lat="43.0242" lon="-0.10236">
        <ele>491.37</ele>
        <time>2013-12-11T15:15:18Z</time>
      </trkpt>
      <trkpt lat="43.02431" lon="-0.10222">
        <ele>489.93</ele>
        <time>2013-12-11T15:15:20Z</time>
      </trkpt>
      <trkpt lat="43.02442" lon="-0.10206">
        <ele>489.45</ele>
        <time>2013-12-11T15:15:22Z</time>
      </trkpt>
      <trkpt lat="43.02447" lon="-0.10197">
        <ele>488.49</ele>
        <time>2013-12-11T15:15:23Z</time>
      </trkpt>
      <trkpt lat="43.02449" lon="-0.10188">
        <ele>488.49</ele>
        <time>2013-12-11T15:15:24Z</time>
      </trkpt>
      <trkpt lat="43.0245" lon="-0.10178">
        <ele>487.05</ele>
        <time>2013-12-11T15:15:25Z</time>
      </trkpt>
      <trkpt lat="43.02451" lon="-0.10168">
        <ele>485.6</ele>
        <time>2013-12-11T15:15:26Z</time>
      </trkpt>
      <trkpt lat="43.02452" lon="-0.10161">
        <ele>485.6</ele>
        <time>2013-12-11T15:15:27Z</time>
      </trkpt>
      <trkpt lat="43.02454" lon="-0.10155">
        <ele>484.64</ele>
        <time>2013-12-11T15:15:28Z</time>
      </trkpt>
      <trkpt lat="43.02457" lon="-0.10151">
        <ele>484.16</ele>
        <time>2013-12-11T15:15:29Z</time>
      </trkpt>
      <trkpt lat="43.02464" lon="-0.10139">
        <ele>482.72</ele>
        <time>2013-12-11T15:15:31Z</time>
      </trkpt>
      <trkpt lat="43.0247" lon="-0.10131">
        <ele>481.76</ele>
        <time>2013-12-11T15:15:32Z</time>
      </trkpt>
      <trkpt lat="43.02503" lon="-0.10085">
        <ele>479.84</ele>
        <time>2013-12-11T15:15:37Z</time>
      </trkpt>
      <trkpt lat="43.02511" lon="-0.10079">
        <ele>479.84</ele>
        <time>2013-12-11T15:15:38Z</time>
      </trkpt>
      <trkpt lat="43.02517" lon="-0.10074">
        <ele>479.35</ele>
        <time>2013-12-11T15:15:39Z</time>
      </trkpt>
      <trkpt lat="43.02535" lon="-0.10055">
        <ele>479.35</ele>
        <time>2013-12-11T15:15:43Z</time>
      </trkpt>
      <trkpt lat="43.02527" lon="-0.10043">
        <ele>478.87</ele>
        <time>2013-12-11T15:15:46Z</time>
      </trkpt>
      <trkpt lat="43.02522" lon="-0.10028">
        <ele>476.95</ele>
        <time>2013-12-11T15:15:48Z</time>
      </trkpt>
      <trkpt lat="43.0252" lon="-0.1002">
        <ele>476.47</ele>
        <time>2013-12-11T15:15:49Z</time>
      </trkpt>
      <trkpt lat="43.02517" lon="-0.10012">
        <ele>476.47</ele>
        <time>2013-12-11T15:15:50Z</time>
      </trkpt>
      <trkpt lat="43.02509" lon="-0.09994">
        <ele>475.51</ele>
        <time>2013-12-11T15:15:52Z</time>
      </trkpt>
      <trkpt lat="43.02489" lon="-0.09951">
        <ele>474.55</ele>
        <time>2013-12-11T15:15:58Z</time>
      </trkpt>
      <trkpt lat="43.02487" lon="-0.09933">
        <ele>472.63</ele>
        <time>2013-12-11T15:16:00Z</time>
      </trkpt>
      <trkpt lat="43.02486" lon="-0.09924">
        <ele>472.63</ele>
        <time>2013-12-11T15:16:01Z</time>
      </trkpt>
      <trkpt lat="43.0248" lon="-0.09901">
        <ele>470.7</ele>
        <time>2013-12-11T15:16:04Z</time>
      </trkpt>
      <trkpt lat="43.0248" lon="-0.09893">
        <ele>469.74</ele>
        <time>2013-12-11T15:16:05Z</time>
      </trkpt>
      <trkpt lat="43.02481" lon="-0.09884">
        <ele>467.82</ele>
        <time>2013-12-11T15:16:06Z</time>
      </trkpt>
      <trkpt lat="43.02484" lon="-0.09878">
        <ele>467.34</ele>
        <time>2013-12-11T15:16:07Z</time>
      </trkpt>
      <trkpt lat="43.02488" lon="-0.09873">
        <ele>466.38</ele>
        <time>2013-12-11T15:16:08Z</time>
      </trkpt>
      <trkpt lat="43.02492" lon="-0.09864">
        <ele>466.38</ele>
        <time>2013-12-11T15:16:09Z</time>
      </trkpt>
      <trkpt lat="43.02496" lon="-0.09857">
        <ele>465.9</ele>
        <time>2013-12-11T15:16:10Z</time>
      </trkpt>
      <trkpt lat="43.02501" lon="-0.09851">
        <ele>465.42</ele>
        <time>2013-12-11T15:16:11Z</time>
      </trkpt>
      <trkpt lat="43.02505" lon="-0.09844">
        <ele>464.45</ele>
        <time>2013-12-11T15:16:12Z</time>
      </trkpt>
      <trkpt lat="43.02508" lon="-0.09837">
        <ele>463.97</ele>
        <time>2013-12-11T15:16:13Z</time>
      </trkpt>
      <trkpt lat="43.0251" lon="-0.09829">
        <ele>462.53</ele>
        <time>2013-12-11T15:16:14Z</time>
      </trkpt>
      <trkpt lat="43.02513" lon="-0.09819">
        <ele>460.61</ele>
        <time>2013-12-11T15:16:16Z</time>
      </trkpt>
      <trkpt lat="43.02513" lon="-0.09813">
        <ele>458.69</ele>
        <time>2013-12-11T15:16:17Z</time>
      </trkpt>
      <trkpt lat="43.02503" lon="-0.09806">
        <ele>455.8</ele>
        <time>2013-12-11T15:16:20Z</time>
      </trkpt>
      <trkpt lat="43.02486" lon="-0.09795">
        <ele>451</ele>
        <time>2013-12-11T15:16:23Z</time>
      </trkpt>
      <trkpt lat="43.02466" lon="-0.09789">
        <ele>448.59</ele>
        <time>2013-12-11T15:16:26Z</time>
      </trkpt>
      <trkpt lat="43.02449" lon="-0.09789">
        <ele>447.63</ele>
        <time>2013-12-11T15:16:28Z</time>
      </trkpt>
      <trkpt lat="43.02419" lon="-0.09806">
        <ele>441.38</ele>
        <time>2013-12-11T15:16:32Z</time>
      </trkpt>
      <trkpt lat="43.02411" lon="-0.09812">
        <ele>439.94</ele>
        <time>2013-12-11T15:16:33Z</time>
      </trkpt>
      <trkpt lat="43.02395" lon="-0.09821">
        <ele>437.54</ele>
        <time>2013-12-11T15:16:35Z</time>
      </trkpt>
      <trkpt lat="43.02377" lon="-0.09806">
        <ele>433.69</ele>
        <time>2013-12-11T15:16:41Z</time>
      </trkpt>
      <trkpt lat="43.02369" lon="-0.09793">
        <ele>430.33</ele>
        <time>2013-12-11T15:16:44Z</time>
      </trkpt>
      <trkpt lat="43.02357" lon="-0.09782">
        <ele>426.96</ele>
        <time>2013-12-11T15:16:49Z</time>
      </trkpt>
      <trkpt lat="43.02354" lon="-0.09776">
        <ele>426.48</ele>
        <time>2013-12-11T15:16:51Z</time>
      </trkpt>
      <trkpt lat="43.02354" lon="-0.09757">
        <ele>423.12</ele>
        <time>2013-12-11T15:16:55Z</time>
      </trkpt>
      <trkpt lat="43.02345" lon="-0.09734">
        <ele>421.68</ele>
        <time>2013-12-11T15:16:59Z</time>
      </trkpt>
      <trkpt lat="43.02337" lon="-0.0971">
        <ele>420.71</ele>
        <time>2013-12-11T15:17:02Z</time>
      </trkpt>
      <trkpt lat="43.0233" lon="-0.09675">
        <ele>418.79</ele>
        <time>2013-12-11T15:17:10Z</time>
      </trkpt>
      <trkpt lat="43.02324" lon="-0.09672">
        <ele>418.79</ele>
        <time>2013-12-11T15:17:22Z</time>
      </trkpt>
      <trkpt lat="43.0232" lon="-0.09668">
        <ele>418.79</ele>
        <time>2013-12-11T15:17:43Z</time>
      </trkpt>
      <trkpt lat="43.0232" lon="-0.09667">
        <ele>418.31</ele>
        <time>2013-12-11T15:18:02Z</time>
      </trkpt>
      <trkpt lat="43.0232" lon="-0.09667">
        <ele>418.31</ele>
        <time>2013-12-11T15:18:22Z</time>
      </trkpt>
      <trkpt lat="43.02335" lon="-0.09657">
        <ele>418.31</ele>
        <time>2013-12-11T15:18:30Z</time>
      </trkpt>
      <trkpt lat="43.02368" lon="-0.09637">
        <ele>418.31</ele>
        <time>2013-12-11T15:18:40Z</time>
      </trkpt>
      <trkpt lat="43.02378" lon="-0.09628">
        <ele>418.31</ele>
        <time>2013-12-11T15:18:43Z</time>
      </trkpt>
      <trkpt lat="43.02388" lon="-0.09616">
        <ele>417.83</ele>
        <time>2013-12-11T15:18:46Z</time>
      </trkpt>
      <trkpt lat="43.02437" lon="-0.09546">
        <ele>416.87</ele>
        <time>2013-12-11T15:18:59Z</time>
      </trkpt>
      <trkpt lat="43.02494" lon="-0.09469">
        <ele>417.35</ele>
        <time>2013-12-11T15:19:15Z</time>
      </trkpt>
      <trkpt lat="43.02548" lon="-0.0941">
        <ele>417.83</ele>
        <time>2013-12-11T15:19:30Z</time>
      </trkpt>
      <trkpt lat="43.02602" lon="-0.09365">
        <ele>418.79</ele>
        <time>2013-12-11T15:19:46Z</time>
      </trkpt>
      <trkpt lat="43.0262" lon="-0.09352">
        <ele>418.79</ele>
        <time>2013-12-11T15:19:51Z</time>
      </trkpt>
      <trkpt lat="43.02657" lon="-0.0934">
        <ele>418.79</ele>
        <time>2013-12-11T15:20:02Z</time>
      </trkpt>
      <trkpt lat="43.02662" lon="-0.09363">
        <ele>419.27</ele>
        <time>2013-12-11T15:20:08Z</time>
      </trkpt>
      <trkpt lat="43.02678" lon="-0.09408">
        <ele>421.19</ele>
        <time>2013-12-11T15:20:21Z</time>
      </trkpt>
      <trkpt lat="43.02699" lon="-0.09451">
        <ele>421.68</ele>
        <time>2013-12-11T15:20:33Z</time>
      </trkpt>
      <trkpt lat="43.02719" lon="-0.09493">
        <ele>421.19</ele>
        <time>2013-12-11T15:20:44Z</time>
      </trkpt>
      <trkpt lat="43.02721" lon="-0.09498">
        <ele>421.19</ele>
        <time>2013-12-11T15:20:45Z</time>
      </trkpt>
      <trkpt lat="43.0274" lon="-0.0953">
        <ele>422.16</ele>
        <time>2013-12-11T15:20:53Z</time>
      </trkpt>
      <trkpt lat="43.02751" lon="-0.09538">
        <ele>422.16</ele>
        <time>2013-12-11T15:20:57Z</time>
      </trkpt>
      <trkpt lat="43.02764" lon="-0.09523">
        <ele>423.6</ele>
        <time>2013-12-11T15:21:03Z</time>
      </trkpt>
      <trkpt lat="43.02764" lon="-0.09504">
        <ele>423.12</ele>
        <time>2013-12-11T15:21:07Z</time>
      </trkpt>
      <trkpt lat="43.02772" lon="-0.09486">
        <ele>422.64</ele>
        <time>2013-12-11T15:21:11Z</time>
      </trkpt>
      <trkpt lat="43.02783" lon="-0.0946">
        <ele>422.16</ele>
        <time>2013-12-11T15:21:16Z</time>
      </trkpt>
      <trkpt lat="43.02786" lon="-0.09443">
        <ele>422.64</ele>
        <time>2013-12-11T15:21:19Z</time>
      </trkpt>
      <trkpt lat="43.02788" lon="-0.09406">
        <ele>422.64</ele>
        <time>2013-12-11T15:21:26Z</time>
      </trkpt>
      <trkpt lat="43.02788" lon="-0.09384">
        <ele>422.64</ele>
        <time>2013-12-11T15:21:30Z</time>
      </trkpt>
      <trkpt lat="43.02788" lon="-0.09367">
        <ele>423.12</ele>
        <time>2013-12-11T15:21:33Z</time>
      </trkpt>
      <trkpt lat="43.02804" lon="-0.09361">
        <ele>424.08</ele>
        <time>2013-12-11T15:21:39Z</time>
      </trkpt>
      <trkpt lat="43.02834" lon="-0.09366">
        <ele>426</ele>
        <time>2013-12-11T15:21:50Z</time>
      </trkpt>
      <trkpt lat="43.02841" lon="-0.09351">
        <ele>427.44</ele>
        <time>2013-12-11T15:21:54Z</time>
      </trkpt>
      <trkpt lat="43.02876" lon="-0.09296">
        <ele>427.44</ele>
        <time>2013-12-11T15:22:10Z</time>
      </trkpt>
      <trkpt lat="43.02912" lon="-0.09268">
        <ele>428.89</ele>
        <time>2013-12-11T15:22:22Z</time>
      </trkpt>
      <trkpt lat="43.02947" lon="-0.09259">
        <ele>430.81</ele>
        <time>2013-12-11T15:22:35Z</time>
      </trkpt>
      <trkpt lat="43.02976" lon="-0.09257">
        <ele>433.69</ele>
        <time>2013-12-11T15:22:47Z</time>
      </trkpt>
      <trkpt lat="43.03" lon="-0.09273">
        <ele>436.58</ele>
        <time>2013-12-11T15:22:59Z</time>
      </trkpt>
      <trkpt lat="43.03002" lon="-0.09276">
        <ele>437.06</ele>
        <time>2013-12-11T15:23:01Z</time>
      </trkpt>
      <trkpt lat="43.03013" lon="-0.09277">
        <ele>438.5</ele>
        <time>2013-12-11T15:23:07Z</time>
      </trkpt>
      <trkpt lat="43.03037" lon="-0.09271">
        <ele>441.86</ele>
        <time>2013-12-11T15:23:20Z</time>
      </trkpt>
      <trkpt lat="43.03055" lon="-0.09257">
        <ele>444.27</ele>
        <time>2013-12-11T15:23:32Z</time>
      </trkpt>
      <trkpt lat="43.03069" lon="-0.09242">
        <ele>445.71</ele>
        <time>2013-12-11T15:23:43Z</time>
      </trkpt>
      <trkpt lat="43.03073" lon="-0.09237">
        <ele>446.19</ele>
        <time>2013-12-11T15:23:46Z</time>
      </trkpt>
      <trkpt lat="43.03083" lon="-0.09226">
        <ele>446.67</ele>
        <time>2013-12-11T15:23:53Z</time>
      </trkpt>
      <trkpt lat="43.03108" lon="-0.09203">
        <ele>448.59</ele>
        <time>2013-12-11T15:24:07Z</time>
      </trkpt>
      <trkpt lat="43.03128" lon="-0.09185">
        <ele>450.52</ele>
        <time>2013-12-11T15:24:18Z</time>
      </trkpt>
      <trkpt lat="43.03152" lon="-0.09156">
        <ele>451.48</ele>
        <time>2013-12-11T15:24:31Z</time>
      </trkpt>
      <trkpt lat="43.03166" lon="-0.09119">
        <ele>453.4</ele>
        <time>2013-12-11T15:24:43Z</time>
      </trkpt>
      <trkpt lat="43.03178" lon="-0.09088">
        <ele>455.8</ele>
        <time>2013-12-11T15:24:54Z</time>
      </trkpt>
      <trkpt lat="43.0319" lon="-0.09059">
        <ele>458.69</ele>
        <time>2013-12-11T15:25:05Z</time>
      </trkpt>
      <trkpt lat="43.03192" lon="-0.09056">
        <ele>459.17</ele>
        <time>2013-12-11T15:25:06Z</time>
      </trkpt>
      <trkpt lat="43.032" lon="-0.09023">
        <ele>462.05</ele>
        <time>2013-12-11T15:25:16Z</time>
      </trkpt>
      <trkpt lat="43.03205" lon="-0.08981">
        <ele>464.93</ele>
        <time>2013-12-11T15:25:29Z</time>
      </trkpt>
      <trkpt lat="43.03209" lon="-0.08933">
        <ele>467.34</ele>
        <time>2013-12-11T15:25:45Z</time>
      </trkpt>
      <trkpt lat="43.0321" lon="-0.08894">
        <ele>470.7</ele>
        <time>2013-12-11T15:25:58Z</time>
      </trkpt>
      <trkpt lat="43.03215" lon="-0.08865">
        <ele>474.07</ele>
        <time>2013-12-11T15:26:08Z</time>
      </trkpt>
      <trkpt lat="43.03229" lon="-0.08842">
        <ele>477.43</ele>
        <time>2013-12-11T15:26:17Z</time>
      </trkpt>
      <trkpt lat="43.03239" lon="-0.08819">
        <ele>478.39</ele>
        <time>2013-12-11T15:26:26Z</time>
      </trkpt>
      <trkpt lat="43.03244" lon="-0.0881">
        <ele>478.39</ele>
        <time>2013-12-11T15:26:30Z</time>
      </trkpt>
      <trkpt lat="43.03249" lon="-0.08801">
        <ele>478.87</ele>
        <time>2013-12-11T15:26:34Z</time>
      </trkpt>
      <trkpt lat="43.03251" lon="-0.08796">
        <ele>478.39</ele>
        <time>2013-12-11T15:26:36Z</time>
      </trkpt>
      <trkpt lat="43.03265" lon="-0.0876">
        <ele>478.87</ele>
        <time>2013-12-11T15:26:49Z</time>
      </trkpt>
      <trkpt lat="43.03278" lon="-0.08722">
        <ele>479.84</ele>
        <time>2013-12-11T15:27:03Z</time>
      </trkpt>
      <trkpt lat="43.03279" lon="-0.08717">
        <ele>479.84</ele>
        <time>2013-12-11T15:27:05Z</time>
      </trkpt>
      <trkpt lat="43.03281" lon="-0.08707">
        <ele>479.84</ele>
        <time>2013-12-11T15:27:10Z</time>
      </trkpt>
      <trkpt lat="43.03294" lon="-0.08682">
        <ele>481.76</ele>
        <time>2013-12-11T15:27:22Z</time>
      </trkpt>
      <trkpt lat="43.03299" lon="-0.08667">
        <ele>482.72</ele>
        <time>2013-12-11T15:27:29Z</time>
      </trkpt>
      <trkpt lat="43.0331" lon="-0.08637">
        <ele>482.72</ele>
        <time>2013-12-11T15:27:41Z</time>
      </trkpt>
      <trkpt lat="43.03328" lon="-0.08599">
        <ele>480.8</ele>
        <time>2013-12-11T15:27:52Z</time>
      </trkpt>
      <trkpt lat="43.03358" lon="-0.08546">
        <ele>480.8</ele>
        <time>2013-12-11T15:28:06Z</time>
      </trkpt>
      <trkpt lat="43.03361" lon="-0.08541">
        <ele>480.32</ele>
        <time>2013-12-11T15:28:07Z</time>
      </trkpt>
      <trkpt lat="43.03393" lon="-0.08517">
        <ele>477.91</ele>
        <time>2013-12-11T15:28:15Z</time>
      </trkpt>
      <trkpt lat="43.03396" lon="-0.08511">
        <ele>477.91</ele>
        <time>2013-12-11T15:28:16Z</time>
      </trkpt>
      <trkpt lat="43.03401" lon="-0.08497">
        <ele>477.43</ele>
        <time>2013-12-11T15:28:18Z</time>
      </trkpt>
      <trkpt lat="43.03427" lon="-0.08455">
        <ele>478.39</ele>
        <time>2013-12-11T15:28:29Z</time>
      </trkpt>
      <trkpt lat="43.03437" lon="-0.08441">
        <ele>478.39</ele>
        <time>2013-12-11T15:28:33Z</time>
      </trkpt>
      <trkpt lat="43.0343" lon="-0.08412">
        <ele>476.47</ele>
        <time>2013-12-11T15:28:39Z</time>
      </trkpt>
      <trkpt lat="43.03415" lon="-0.0839">
        <ele>472.14</ele>
        <time>2013-12-11T15:28:43Z</time>
      </trkpt>
      <trkpt lat="43.0342" lon="-0.08353">
        <ele>470.22</ele>
        <time>2013-12-11T15:28:51Z</time>
      </trkpt>
      <trkpt lat="43.03422" lon="-0.08349">
        <ele>469.74</ele>
        <time>2013-12-11T15:28:52Z</time>
      </trkpt>
      <trkpt lat="43.0343" lon="-0.08318">
        <ele>468.78</ele>
        <time>2013-12-11T15:28:58Z</time>
      </trkpt>
      <trkpt lat="43.03435" lon="-0.083">
        <ele>467.82</ele>
        <time>2013-12-11T15:29:01Z</time>
      </trkpt>
      <trkpt lat="43.03459" lon="-0.08258">
        <ele>469.74</ele>
        <time>2013-12-11T15:29:13Z</time>
      </trkpt>
      <trkpt lat="43.03471" lon="-0.08222">
        <ele>471.18</ele>
        <time>2013-12-11T15:29:24Z</time>
      </trkpt>
      <trkpt lat="43.03487" lon="-0.0818">
        <ele>473.59</ele>
        <time>2013-12-11T15:29:36Z</time>
      </trkpt>
      <trkpt lat="43.03511" lon="-0.08138">
        <ele>475.51</ele>
        <time>2013-12-11T15:29:49Z</time>
      </trkpt>
      <trkpt lat="43.03538" lon="-0.08106">
        <ele>476.47</ele>
        <time>2013-12-11T15:30:02Z</time>
      </trkpt>
      <trkpt lat="43.0357" lon="-0.0808">
        <ele>476.47</ele>
        <time>2013-12-11T15:30:14Z</time>
      </trkpt>
      <trkpt lat="43.03604" lon="-0.08049">
        <ele>476.47</ele>
        <time>2013-12-11T15:30:26Z</time>
      </trkpt>
      <trkpt lat="43.03608" lon="-0.08027">
        <ele>476.47</ele>
        <time>2013-12-11T15:30:30Z</time>
      </trkpt>
      <trkpt lat="43.03609" lon="-0.08017">
        <ele>476.95</ele>
        <time>2013-12-11T15:30:32Z</time>
      </trkpt>
      <trkpt lat="43.03626" lon="-0.07992">
        <ele>478.87</ele>
        <time>2013-12-11T15:30:40Z</time>
      </trkpt>
      <trkpt lat="43.03653" lon="-0.07969">
        <ele>478.39</ele>
        <time>2013-12-11T15:30:46Z</time>
      </trkpt>
      <trkpt lat="43.03657" lon="-0.0796">
        <ele>478.87</ele>
        <time>2013-12-11T15:30:48Z</time>
      </trkpt>
      <trkpt lat="43.0366" lon="-0.07954">
        <ele>479.84</ele>
        <time>2013-12-11T15:30:50Z</time>
      </trkpt>
      <trkpt lat="43.03666" lon="-0.07943">
        <ele>480.8</ele>
        <time>2013-12-11T15:30:54Z</time>
      </trkpt>
      <trkpt lat="43.03686" lon="-0.07956">
        <ele>481.28</ele>
        <time>2013-12-11T15:31:04Z</time>
      </trkpt>
      <trkpt lat="43.03695" lon="-0.07963">
        <ele>481.76</ele>
        <time>2013-12-11T15:31:09Z</time>
      </trkpt>
      <trkpt lat="43.03721" lon="-0.07965">
        <ele>483.2</ele>
        <time>2013-12-11T15:31:20Z</time>
      </trkpt>
      <trkpt lat="43.03744" lon="-0.07962">
        <ele>485.12</ele>
        <time>2013-12-11T15:31:28Z</time>
      </trkpt>
      <trkpt lat="43.03747" lon="-0.07961">
        <ele>485.12</ele>
        <time>2013-12-11T15:31:29Z</time>
      </trkpt>
      <trkpt lat="43.03768" lon="-0.07949">
        <ele>488.01</ele>
        <time>2013-12-11T15:31:38Z</time>
      </trkpt>
      <trkpt lat="43.03781" lon="-0.07944">
        <ele>489.45</ele>
        <time>2013-12-11T15:31:43Z</time>
      </trkpt>
      <trkpt lat="43.03799" lon="-0.07924">
        <ele>488.01</ele>
        <time>2013-12-11T15:31:51Z</time>
      </trkpt>
      <trkpt lat="43.03823" lon="-0.07884">
        <ele>488.97</ele>
        <time>2013-12-11T15:32:00Z</time>
      </trkpt>
      <trkpt lat="43.03835" lon="-0.07864">
        <ele>491.85</ele>
        <time>2013-12-11T15:32:08Z</time>
      </trkpt>
      <trkpt lat="43.03838" lon="-0.07851">
        <ele>493.29</ele>
        <time>2013-12-11T15:32:12Z</time>
      </trkpt>
      <trkpt lat="43.0384" lon="-0.07832">
        <ele>494.26</ele>
        <time>2013-12-11T15:32:18Z</time>
      </trkpt>
      <trkpt lat="43.0385" lon="-0.0781">
        <ele>497.14</ele>
        <time>2013-12-11T15:32:28Z</time>
      </trkpt>
      <trkpt lat="43.03853" lon="-0.07809">
        <ele>497.62</ele>
        <time>2013-12-11T15:32:30Z</time>
      </trkpt>
      <trkpt lat="43.03866" lon="-0.07801">
        <ele>500.98</ele>
        <time>2013-12-11T15:32:40Z</time>
      </trkpt>
      <trkpt lat="43.03882" lon="-0.07774">
        <ele>504.83</ele>
        <time>2013-12-11T15:32:51Z</time>
      </trkpt>
      <trkpt lat="43.03887" lon="-0.07767">
        <ele>505.79</ele>
        <time>2013-12-11T15:32:54Z</time>
      </trkpt>
      <trkpt lat="43.03893" lon="-0.07749">
        <ele>507.71</ele>
        <time>2013-12-11T15:33:02Z</time>
      </trkpt>
      <trkpt lat="43.03897" lon="-0.0772">
        <ele>503.87</ele>
        <time>2013-12-11T15:33:10Z</time>
      </trkpt>
      <trkpt lat="43.03891" lon="-0.077">
        <ele>500.5</ele>
        <time>2013-12-11T15:33:13Z</time>
      </trkpt>
      <trkpt lat="43.03893" lon="-0.0768">
        <ele>497.62</ele>
        <time>2013-12-11T15:33:16Z</time>
      </trkpt>
      <trkpt lat="43.03895" lon="-0.07671">
        <ele>495.7</ele>
        <time>2013-12-11T15:33:18Z</time>
      </trkpt>
      <trkpt lat="43.03893" lon="-0.07659">
        <ele>494.26</ele>
        <time>2013-12-11T15:33:20Z</time>
      </trkpt>
      <trkpt lat="43.03891" lon="-0.07636">
        <ele>490.89</ele>
        <time>2013-12-11T15:33:23Z</time>
      </trkpt>
      <trkpt lat="43.03892" lon="-0.07618">
        <ele>489.93</ele>
        <time>2013-12-11T15:33:25Z</time>
      </trkpt>
      <trkpt lat="43.03894" lon="-0.07598">
        <ele>486.08</ele>
        <time>2013-12-11T15:33:27Z</time>
      </trkpt>
      <trkpt lat="43.03893" lon="-0.07557">
        <ele>483.2</ele>
        <time>2013-12-11T15:33:31Z</time>
      </trkpt>
      <trkpt lat="43.03894" lon="-0.07539">
        <ele>481.76</ele>
        <time>2013-12-11T15:33:33Z</time>
      </trkpt>
      <trkpt lat="43.03895" lon="-0.07531">
        <ele>480.8</ele>
        <time>2013-12-11T15:33:34Z</time>
      </trkpt>
      <trkpt lat="43.03902" lon="-0.07492">
        <ele>480.32</ele>
        <time>2013-12-11T15:33:40Z</time>
      </trkpt>
      <trkpt lat="43.03901" lon="-0.0748">
        <ele>479.84</ele>
        <time>2013-12-11T15:33:42Z</time>
      </trkpt>
      <trkpt lat="43.03906" lon="-0.07445">
        <ele>476.47</ele>
        <time>2013-12-11T15:33:47Z</time>
      </trkpt>
      <trkpt lat="43.03908" lon="-0.07428">
        <ele>475.03</ele>
        <time>2013-12-11T15:33:49Z</time>
      </trkpt>
      <trkpt lat="43.03912" lon="-0.0739">
        <ele>471.18</ele>
        <time>2013-12-11T15:33:53Z</time>
      </trkpt>
      <trkpt lat="43.03912" lon="-0.07381">
        <ele>469.74</ele>
        <time>2013-12-11T15:33:54Z</time>
      </trkpt>
      <trkpt lat="43.03905" lon="-0.07344">
        <ele>464.45</ele>
        <time>2013-12-11T15:33:58Z</time>
      </trkpt>
      <trkpt lat="43.03904" lon="-0.07342">
        <ele>464.93</ele>
        <time>2013-12-11T15:33:59Z</time>
      </trkpt>
      <trkpt lat="43.03903" lon="-0.07328">
        <ele>464.45</ele>
        <time>2013-12-11T15:34:10Z</time>
      </trkpt>
      <trkpt lat="43.03898" lon="-0.07326">
        <ele>464.45</ele>
        <time>2013-12-11T15:34:40Z</time>
      </trkpt>
      <trkpt lat="43.03897" lon="-0.07325">
        <ele>463.49</ele>
        <time>2013-12-11T15:34:52Z</time>
      </trkpt>
      <trkpt lat="43.03897" lon="-0.07324">
        <ele>463.49</ele>
        <time>2013-12-11T15:35:16Z</time>
      </trkpt>
      <trkpt lat="43.03896" lon="-0.07321">
        <ele>463.49</ele>
        <time>2013-12-11T15:35:39Z</time>
      </trkpt>
      <trkpt lat="43.03893" lon="-0.0732">
        <ele>463.49</ele>
        <time>2013-12-11T15:36:03Z</time>
      </trkpt>
      <trkpt lat="43.03895" lon="-0.0732">
        <ele>464.45</ele>
        <time>2013-12-11T15:36:25Z</time>
      </trkpt>
      <trkpt lat="43.03896" lon="-0.07322">
        <ele>464.93</ele>
        <time>2013-12-11T15:36:30Z</time>
      </trkpt>
      <trkpt lat="43.03895" lon="-0.07315">
        <ele>462.53</ele>
        <time>2013-12-11T15:36:34Z</time>
      </trkpt>
      <trkpt lat="43.03894" lon="-0.07313">
        <ele>461.57</ele>
        <time>2013-12-11T15:36:36Z</time>
      </trkpt>
      <trkpt lat="43.03894" lon="-0.07312">
        <ele>461.09</ele>
        <time>2013-12-11T15:36:37Z</time>
      </trkpt>
      <trkpt lat="43.03883" lon="-0.07306">
        <ele>456.76</ele>
        <time>2013-12-11T15:36:41Z</time>
      </trkpt>
      <trkpt lat="43.03867" lon="-0.073">
        <ele>450.03</ele>
        <time>2013-12-11T15:36:45Z</time>
      </trkpt>
      <trkpt lat="43.03858" lon="-0.07302">
        <ele>446.67</ele>
        <time>2013-12-11T15:36:47Z</time>
      </trkpt>
      <trkpt lat="43.03853" lon="-0.07304">
        <ele>444.75</ele>
        <time>2013-12-11T15:36:49Z</time>
      </trkpt>
      <trkpt lat="43.03853" lon="-0.07306">
        <ele>444.75</ele>
        <time>2013-12-11T15:36:52Z</time>
      </trkpt>
      <trkpt lat="43.03861" lon="-0.07293">
        <ele>445.23</ele>
        <time>2013-12-11T15:36:59Z</time>
      </trkpt>
      <trkpt lat="43.03883" lon="-0.0727">
        <ele>445.23</ele>
        <time>2013-12-11T15:37:08Z</time>
      </trkpt>
      <trkpt lat="43.03891" lon="-0.07258">
        <ele>446.19</ele>
        <time>2013-12-11T15:37:13Z</time>
      </trkpt>
      <trkpt lat="43.03906" lon="-0.07211">
        <ele>445.71</ele>
        <time>2013-12-11T15:37:25Z</time>
      </trkpt>
      <trkpt lat="43.03908" lon="-0.0718">
        <ele>441.86</ele>
        <time>2013-12-11T15:37:33Z</time>
      </trkpt>
      <trkpt lat="43.03907" lon="-0.07158">
        <ele>438.5</ele>
        <time>2013-12-11T15:37:36Z</time>
      </trkpt>
      <trkpt lat="43.03909" lon="-0.07141">
        <ele>434.65</ele>
        <time>2013-12-11T15:37:38Z</time>
      </trkpt>
      <trkpt lat="43.03915" lon="-0.07122">
        <ele>430.81</ele>
        <time>2013-12-11T15:37:40Z</time>
      </trkpt>
      <trkpt lat="43.03928" lon="-0.07089">
        <ele>426</ele>
        <time>2013-12-11T15:37:44Z</time>
      </trkpt>
      <trkpt lat="43.03946" lon="-0.07073">
        <ele>423.12</ele>
        <time>2013-12-11T15:37:49Z</time>
      </trkpt>
      <trkpt lat="43.03955" lon="-0.07065">
        <ele>422.64</ele>
        <time>2013-12-11T15:37:51Z</time>
      </trkpt>
      <trkpt lat="43.03969" lon="-0.07046">
        <ele>420.23</ele>
        <time>2013-12-11T15:37:55Z</time>
      </trkpt>
      <trkpt lat="43.03972" lon="-0.07033">
        <ele>417.83</ele>
        <time>2013-12-11T15:37:59Z</time>
      </trkpt>
      <trkpt lat="43.03976" lon="-0.07027">
        <ele>417.83</ele>
        <time>2013-12-11T15:38:10Z</time>
      </trkpt>
      <trkpt lat="43.03976" lon="-0.07024">
        <ele>417.35</ele>
        <time>2013-12-11T15:38:32Z</time>
      </trkpt>
      <trkpt lat="43.03979" lon="-0.07016">
        <ele>415.43</ele>
        <time>2013-12-11T15:38:37Z</time>
      </trkpt>
      <trkpt lat="43.03979" lon="-0.07013">
        <ele>413.5</ele>
        <time>2013-12-11T15:38:45Z</time>
      </trkpt>
      <trkpt lat="43.03972" lon="-0.0701">
        <ele>411.58</ele>
        <time>2013-12-11T15:38:50Z</time>
      </trkpt>
      <trkpt lat="43.03976" lon="-0.07006">
        <ele>411.1</ele>
        <time>2013-12-11T15:38:57Z</time>
      </trkpt>
      <trkpt lat="43.03978" lon="-0.07005">
        <ele>411.1</ele>
        <time>2013-12-11T15:39:14Z</time>
      </trkpt>
      <trkpt lat="43.03981" lon="-0.07005">
        <ele>411.1</ele>
        <time>2013-12-11T15:39:33Z</time>
      </trkpt>
      <trkpt lat="43.03981" lon="-0.07003">
        <ele>411.58</ele>
        <time>2013-12-11T15:40:09Z</time>
      </trkpt>
      <trkpt lat="43.03981" lon="-0.07005">
        <ele>411.1</ele>
        <time>2013-12-11T15:40:44Z</time>
      </trkpt>
      <trkpt lat="43.0398" lon="-0.07003">
        <ele>411.58</ele>
        <time>2013-12-11T15:41:17Z</time>
      </trkpt>
      <trkpt lat="43.0398" lon="-0.07002">
        <ele>411.58</ele>
        <time>2013-12-11T15:41:23Z</time>
      </trkpt>
      <trkpt lat="43.0398" lon="-0.06993">
        <ele>411.58</ele>
        <time>2013-12-11T15:41:28Z</time>
      </trkpt>
      <trkpt lat="43.03992" lon="-0.06971">
        <ele>409.66</ele>
        <time>2013-12-11T15:41:34Z</time>
      </trkpt>
      <trkpt lat="43.03999" lon="-0.06952">
        <ele>407.26</ele>
        <time>2013-12-11T15:41:37Z</time>
      </trkpt>
      <trkpt lat="43.04008" lon="-0.06913">
        <ele>403.89</ele>
        <time>2013-12-11T15:41:41Z</time>
      </trkpt>
      <trkpt lat="43.04037" lon="-0.06835">
        <ele>401.49</ele>
        <time>2013-12-11T15:41:49Z</time>
      </trkpt>
      <trkpt lat="43.04046" lon="-0.06794">
        <ele>401.49</ele>
        <time>2013-12-11T15:41:56Z</time>
      </trkpt>
      <trkpt lat="43.04045" lon="-0.06802">
        <ele>401.49</ele>
        <time>2013-12-11T15:42:01Z</time>
      </trkpt>
      <trkpt lat="43.04039" lon="-0.06819">
        <ele>401.49</ele>
        <time>2013-12-11T15:42:07Z</time>
      </trkpt>
      <trkpt lat="43.04031" lon="-0.06829">
        <ele>397.64</ele>
        <time>2013-12-11T15:42:15Z</time>
      </trkpt>
      <trkpt lat="43.04031" lon="-0.06813">
        <ele>395.72</ele>
        <time>2013-12-11T15:42:19Z</time>
      </trkpt>
      <trkpt lat="43.04023" lon="-0.06792">
        <ele>394.28</ele>
        <time>2013-12-11T15:42:22Z</time>
      </trkpt>
      <trkpt lat="43.03994" lon="-0.0676">
        <ele>393.32</ele>
        <time>2013-12-11T15:42:30Z</time>
      </trkpt>
      <trkpt lat="43.03978" lon="-0.06746">
        <ele>393.32</ele>
        <time>2013-12-11T15:42:39Z</time>
      </trkpt>
      <trkpt lat="43.03979" lon="-0.06746">
        <ele>393.32</ele>
        <time>2013-12-11T15:42:44Z</time>
      </trkpt>
      <trkpt lat="43.03977" lon="-0.06748">
        <ele>393.32</ele>
        <time>2013-12-11T15:43:00Z</time>
      </trkpt>
      <trkpt lat="43.03975" lon="-0.06747">
        <ele>393.8</ele>
        <time>2013-12-11T15:43:15Z</time>
      </trkpt>
      <trkpt lat="43.03975" lon="-0.06747">
        <ele>393.8</ele>
        <time>2013-12-11T15:43:22Z</time>
      </trkpt>
      <trkpt lat="43.03961" lon="-0.06735">
        <ele>393.8</ele>
        <time>2013-12-11T15:43:30Z</time>
      </trkpt>
      <trkpt lat="43.03918" lon="-0.06771">
        <ele>393.8</ele>
        <time>2013-12-11T15:43:45Z</time>
      </trkpt>
      <trkpt lat="43.03873" lon="-0.06806">
        <ele>393.8</ele>
        <time>2013-12-11T15:44:00Z</time>
      </trkpt>
      <trkpt lat="43.03828" lon="-0.06842">
        <ele>394.28</ele>
        <time>2013-12-11T15:44:14Z</time>
      </trkpt>
      <trkpt lat="43.03784" lon="-0.0687">
        <ele>394.76</ele>
        <time>2013-12-11T15:44:28Z</time>
      </trkpt>
      <trkpt lat="43.0374" lon="-0.06908">
        <ele>396.68</ele>
        <time>2013-12-11T15:44:42Z</time>
      </trkpt>
      <trkpt lat="43.0371" lon="-0.06943">
        <ele>397.64</ele>
        <time>2013-12-11T15:44:54Z</time>
      </trkpt>
      <trkpt lat="43.03694" lon="-0.06959">
        <ele>396.2</ele>
        <time>2013-12-11T15:44:58Z</time>
      </trkpt>
      <trkpt lat="43.03625" lon="-0.07013">
        <ele>395.72</ele>
        <time>2013-12-11T15:45:13Z</time>
      </trkpt>
      <trkpt lat="43.03551" lon="-0.07075">
        <ele>396.68</ele>
        <time>2013-12-11T15:45:32Z</time>
      </trkpt>
      <trkpt lat="43.03544" lon="-0.07082">
        <ele>397.16</ele>
        <time>2013-12-11T15:45:35Z</time>
      </trkpt>
      <trkpt lat="43.03542" lon="-0.07086">
        <ele>397.16</ele>
        <time>2013-12-11T15:45:44Z</time>
      </trkpt>
      <trkpt lat="43.03542" lon="-0.07086">
        <ele>396.68</ele>
        <time>2013-12-11T15:46:00Z</time>
      </trkpt>
      <trkpt lat="43.03541" lon="-0.07087">
        <ele>396.2</ele>
        <time>2013-12-11T15:46:34Z</time>
      </trkpt>
      <trkpt lat="43.03542" lon="-0.07088">
        <ele>396.2</ele>
        <time>2013-12-11T15:47:11Z</time>
      </trkpt>
      <trkpt lat="43.03541" lon="-0.07086">
        <ele>396.2</ele>
        <time>2013-12-11T15:47:49Z</time>
      </trkpt>
      <trkpt lat="43.0354" lon="-0.07085">
        <ele>396.68</ele>
        <time>2013-12-11T15:48:20Z</time>
      </trkpt>
      <trkpt lat="43.0354" lon="-0.07085">
        <ele>396.68</ele>
        <time>2013-12-11T15:48:25Z</time>
      </trkpt>
      <trkpt lat="43.0354" lon="-0.07087">
        <ele>397.16</ele>
        <time>2013-12-11T15:48:42Z</time>
      </trkpt>
      <trkpt lat="43.0354" lon="-0.07087">
        <ele>397.16</ele>
        <time>2013-12-11T15:49:01Z</time>
      </trkpt>
      <trkpt lat="43.0354" lon="-0.07087">
        <ele>397.64</ele>
        <time>2013-12-11T15:49:23Z</time>
      </trkpt>
      <trkpt lat="43.03539" lon="-0.07087">
        <ele>397.64</ele>
        <time>2013-12-11T15:49:52Z</time>
      </trkpt>
      <trkpt lat="43.03539" lon="-0.07088">
        <ele>397.64</ele>
        <time>2013-12-11T15:50:17Z</time>
      </trkpt>
      <trkpt lat="43.03539" lon="-0.07088">
        <ele>397.64</ele>
        <time>2013-12-11T15:50:27Z</time>
      </trkpt>
      <trkpt lat="43.03518" lon="-0.07103">
        <ele>397.64</ele>
        <time>2013-12-11T15:50:37Z</time>
      </trkpt>
      <trkpt lat="43.03463" lon="-0.07149">
        <ele>398.6</ele>
        <time>2013-12-11T15:50:55Z</time>
      </trkpt>
      <trkpt lat="43.03411" lon="-0.07193">
        <ele>398.12</ele>
        <time>2013-12-11T15:51:11Z</time>
      </trkpt>
      <trkpt lat="43.03357" lon="-0.07239">
        <ele>399.08</ele>
        <time>2013-12-11T15:51:27Z</time>
      </trkpt>
      <trkpt lat="43.03289" lon="-0.07295">
        <ele>398.12</ele>
        <time>2013-12-11T15:51:45Z</time>
      </trkpt>
      <trkpt lat="43.03227" lon="-0.07347">
        <ele>399.57</ele>
        <time>2013-12-11T15:52:04Z</time>
      </trkpt>
      <trkpt lat="43.03186" lon="-0.07393">
        <ele>402.45</ele>
        <time>2013-12-11T15:52:21Z</time>
      </trkpt>
      <trkpt lat="43.03157" lon="-0.07446">
        <ele>403.41</ele>
        <time>2013-12-11T15:52:36Z</time>
      </trkpt>
      <trkpt lat="43.03127" lon="-0.07506">
        <ele>403.41</ele>
        <time>2013-12-11T15:52:51Z</time>
      </trkpt>
      <trkpt lat="43.03095" lon="-0.07566">
        <ele>402.93</ele>
        <time>2013-12-11T15:53:05Z</time>
      </trkpt>
      <trkpt lat="43.0306" lon="-0.07637">
        <ele>403.41</ele>
        <time>2013-12-11T15:53:21Z</time>
      </trkpt>
      <trkpt lat="43.03036" lon="-0.07683">
        <ele>404.37</ele>
        <time>2013-12-11T15:53:32Z</time>
      </trkpt>
      <trkpt lat="43.02995" lon="-0.07769">
        <ele>406.29</ele>
        <time>2013-12-11T15:53:50Z</time>
      </trkpt>
      <trkpt lat="43.02986" lon="-0.07788">
        <ele>406.29</ele>
        <time>2013-12-11T15:53:54Z</time>
      </trkpt>
      <trkpt lat="43.02977" lon="-0.07813">
        <ele>407.26</ele>
        <time>2013-12-11T15:53:59Z</time>
      </trkpt>
      <trkpt lat="43.02973" lon="-0.07829">
        <ele>407.74</ele>
        <time>2013-12-11T15:54:02Z</time>
      </trkpt>
      <trkpt lat="43.0297" lon="-0.07879">
        <ele>408.7</ele>
        <time>2013-12-11T15:54:11Z</time>
      </trkpt>
      <trkpt lat="43.02986" lon="-0.07919">
        <ele>408.7</ele>
        <time>2013-12-11T15:54:19Z</time>
      </trkpt>
      <trkpt lat="43.03011" lon="-0.07966">
        <ele>411.58</ele>
        <time>2013-12-11T15:54:32Z</time>
      </trkpt>
      <trkpt lat="43.03033" lon="-0.07998">
        <ele>413.5</ele>
        <time>2013-12-11T15:54:46Z</time>
      </trkpt>
      <trkpt lat="43.03052" lon="-0.08021">
        <ele>415.43</ele>
        <time>2013-12-11T15:54:57Z</time>
      </trkpt>
      <trkpt lat="43.03075" lon="-0.08057">
        <ele>418.31</ele>
        <time>2013-12-11T15:55:14Z</time>
      </trkpt>
      <trkpt lat="43.03079" lon="-0.08059">
        <ele>419.27</ele>
        <time>2013-12-11T15:55:27Z</time>
      </trkpt>
      <trkpt lat="43.0309" lon="-0.08068">
        <ele>421.19</ele>
        <time>2013-12-11T15:55:36Z</time>
      </trkpt>
      <trkpt lat="43.03094" lon="-0.0807">
        <ele>421.19</ele>
        <time>2013-12-11T15:55:38Z</time>
      </trkpt>
      <trkpt lat="43.03101" lon="-0.08075">
        <ele>423.12</ele>
        <time>2013-12-11T15:55:43Z</time>
      </trkpt>
      <trkpt lat="43.03116" lon="-0.08087">
        <ele>425.04</ele>
        <time>2013-12-11T15:55:55Z</time>
      </trkpt>
      <trkpt lat="43.03125" lon="-0.08092">
        <ele>426.96</ele>
        <time>2013-12-11T15:56:02Z</time>
      </trkpt>
      <trkpt lat="43.0314" lon="-0.08106">
        <ele>430.81</ele>
        <time>2013-12-11T15:56:13Z</time>
      </trkpt>
      <trkpt lat="43.03144" lon="-0.08109">
        <ele>430.81</ele>
        <time>2013-12-11T15:56:15Z</time>
      </trkpt>
      <trkpt lat="43.03159" lon="-0.08124">
        <ele>433.69</ele>
        <time>2013-12-11T15:56:28Z</time>
      </trkpt>
      <trkpt lat="43.03161" lon="-0.08125">
        <ele>434.17</ele>
        <time>2013-12-11T15:56:30Z</time>
      </trkpt>
      <trkpt lat="43.03164" lon="-0.0812">
        <ele>435.61</ele>
        <time>2013-12-11T15:56:35Z</time>
      </trkpt>
      <trkpt lat="43.03166" lon="-0.08112">
        <ele>436.58</ele>
        <time>2013-12-11T15:56:41Z</time>
      </trkpt>
      <trkpt lat="43.03165" lon="-0.08109">
        <ele>437.06</ele>
        <time>2013-12-11T15:56:43Z</time>
      </trkpt>
      <trkpt lat="43.03163" lon="-0.08095">
        <ele>439.94</ele>
        <time>2013-12-11T15:56:53Z</time>
      </trkpt>
      <trkpt lat="43.03163" lon="-0.08085">
        <ele>441.38</ele>
        <time>2013-12-11T15:56:59Z</time>
      </trkpt>
      <trkpt lat="43.03165" lon="-0.08076">
        <ele>445.23</ele>
        <time>2013-12-11T15:57:10Z</time>
      </trkpt>
      <trkpt lat="43.03168" lon="-0.08078">
        <ele>446.19</ele>
        <time>2013-12-11T15:57:15Z</time>
      </trkpt>
      <trkpt lat="43.03178" lon="-0.08084">
        <ele>448.59</ele>
        <time>2013-12-11T15:57:25Z</time>
      </trkpt>
      <trkpt lat="43.03187" lon="-0.08087">
        <ele>450.52</ele>
        <time>2013-12-11T15:57:32Z</time>
      </trkpt>
      <trkpt lat="43.03188" lon="-0.08088">
        <ele>450.52</ele>
        <time>2013-12-11T15:57:33Z</time>
      </trkpt>
      <trkpt lat="43.03195" lon="-0.08086">
        <ele>451</ele>
        <time>2013-12-11T15:57:39Z</time>
      </trkpt>
      <trkpt lat="43.03204" lon="-0.08087">
        <ele>451.96</ele>
        <time>2013-12-11T15:57:46Z</time>
      </trkpt>
      <trkpt lat="43.03203" lon="-0.08081">
        <ele>454.36</ele>
        <time>2013-12-11T15:57:57Z</time>
      </trkpt>
      <trkpt lat="43.03203" lon="-0.08077">
        <ele>454.36</ele>
        <time>2013-12-11T15:58:00Z</time>
      </trkpt>
      <trkpt lat="43.03202" lon="-0.08075">
        <ele>455.32</ele>
        <time>2013-12-11T15:58:02Z</time>
      </trkpt>
      <trkpt lat="43.03197" lon="-0.08064">
        <ele>458.21</ele>
        <time>2013-12-11T15:58:12Z</time>
      </trkpt>
      <trkpt lat="43.03194" lon="-0.08058">
        <ele>460.13</ele>
        <time>2013-12-11T15:58:25Z</time>
      </trkpt>
      <trkpt lat="43.03192" lon="-0.08057">
        <ele>460.61</ele>
        <time>2013-12-11T15:58:42Z</time>
      </trkpt>
      <trkpt lat="43.03191" lon="-0.08059">
        <ele>460.61</ele>
        <time>2013-12-11T15:59:11Z</time>
      </trkpt>
      <trkpt lat="43.03191" lon="-0.08059">
        <ele>460.61</ele>
        <time>2013-12-11T15:59:38Z</time>
      </trkpt>
      <trkpt lat="43.0319" lon="-0.08058">
        <ele>461.09</ele>
        <time>2013-12-11T16:00:02Z</time>
      </trkpt>
      <trkpt lat="43.03186" lon="-0.08052">
        <ele>461.57</ele>
        <time>2013-12-11T16:00:13Z</time>
      </trkpt>
      <trkpt lat="43.03186" lon="-0.0805">
        <ele>462.05</ele>
        <time>2013-12-11T16:00:44Z</time>
      </trkpt>
      <trkpt lat="43.03185" lon="-0.08047">
        <ele>462.05</ele>
        <time>2013-12-11T16:01:23Z</time>
      </trkpt>
      <trkpt lat="43.03184" lon="-0.0805">
        <ele>462.53</ele>
        <time>2013-12-11T16:01:58Z</time>
      </trkpt>
      <trkpt lat="43.03185" lon="-0.0805">
        <ele>462.53</ele>
        <time>2013-12-11T16:02:32Z</time>
      </trkpt>
      <trkpt lat="43.03184" lon="-0.08047">
        <ele>463.01</ele>
        <time>2013-12-11T16:03:06Z</time>
      </trkpt>
      <trkpt lat="43.03184" lon="-0.08046">
        <ele>463.01</ele>
        <time>2013-12-11T16:03:27Z</time>
      </trkpt>
      <trkpt lat="43.03181" lon="-0.08036">
        <ele>465.9</ele>
        <time>2013-12-11T16:03:40Z</time>
      </trkpt>
      <trkpt lat="43.0318" lon="-0.08033">
        <ele>466.38</ele>
        <time>2013-12-11T16:03:42Z</time>
      </trkpt>
      <trkpt lat="43.03178" lon="-0.0803">
        <ele>467.34</ele>
        <time>2013-12-11T16:03:44Z</time>
      </trkpt>
      <trkpt lat="43.03177" lon="-0.08023">
        <ele>468.78</ele>
        <time>2013-12-11T16:03:48Z</time>
      </trkpt>
      <trkpt lat="43.03175" lon="-0.08001">
        <ele>472.14</ele>
        <time>2013-12-11T16:04:01Z</time>
      </trkpt>
      <trkpt lat="43.03176" lon="-0.07997">
        <ele>472.14</ele>
        <time>2013-12-11T16:04:03Z</time>
      </trkpt>
      <trkpt lat="43.03175" lon="-0.07991">
        <ele>473.11</ele>
        <time>2013-12-11T16:04:07Z</time>
      </trkpt>
      <trkpt lat="43.0317" lon="-0.07974">
        <ele>476.47</ele>
        <time>2013-12-11T16:04:18Z</time>
      </trkpt>
      <trkpt lat="43.03169" lon="-0.07965">
        <ele>477.43</ele>
        <time>2013-12-11T16:04:24Z</time>
      </trkpt>
      <trkpt lat="43.03173" lon="-0.07969">
        <ele>478.39</ele>
        <time>2013-12-11T16:04:29Z</time>
      </trkpt>
      <trkpt lat="43.03179" lon="-0.07975">
        <ele>479.84</ele>
        <time>2013-12-11T16:04:36Z</time>
      </trkpt>
      <trkpt lat="43.0318" lon="-0.07973">
        <ele>480.32</ele>
        <time>2013-12-11T16:04:38Z</time>
      </trkpt>
      <trkpt lat="43.03176" lon="-0.07967">
        <ele>481.28</ele>
        <time>2013-12-11T16:04:43Z</time>
      </trkpt>
      <trkpt lat="43.03175" lon="-0.07964">
        <ele>481.76</ele>
        <time>2013-12-11T16:04:45Z</time>
      </trkpt>
      <trkpt lat="43.03175" lon="-0.07959">
        <ele>482.72</ele>
        <time>2013-12-11T16:04:48Z</time>
      </trkpt>
      <trkpt lat="43.03181" lon="-0.07962">
        <ele>484.16</ele>
        <time>2013-12-11T16:04:55Z</time>
      </trkpt>
      <trkpt lat="43.03188" lon="-0.07968">
        <ele>486.56</ele>
        <time>2013-12-11T16:05:03Z</time>
      </trkpt>
      <trkpt lat="43.03193" lon="-0.0797">
        <ele>488.49</ele>
        <time>2013-12-11T16:05:08Z</time>
      </trkpt>
      <trkpt lat="43.03205" lon="-0.07976">
        <ele>492.33</ele>
        <time>2013-12-11T16:05:20Z</time>
      </trkpt>
      <trkpt lat="43.03216" lon="-0.07976">
        <ele>494.74</ele>
        <time>2013-12-11T16:05:30Z</time>
      </trkpt>
      <trkpt lat="43.03228" lon="-0.07973">
        <ele>498.1</ele>
        <time>2013-12-11T16:05:42Z</time>
      </trkpt>
      <trkpt lat="43.03241" lon="-0.07967">
        <ele>500.5</ele>
        <time>2013-12-11T16:05:54Z</time>
      </trkpt>
      <trkpt lat="43.03257" lon="-0.07959">
        <ele>503.87</ele>
        <time>2013-12-11T16:06:06Z</time>
      </trkpt>
      <trkpt lat="43.03271" lon="-0.07948">
        <ele>505.79</ele>
        <time>2013-12-11T16:06:19Z</time>
      </trkpt>
      <trkpt lat="43.0328" lon="-0.0794">
        <ele>507.23</ele>
        <time>2013-12-11T16:06:31Z</time>
      </trkpt>
      <trkpt lat="43.03279" lon="-0.07939">
        <ele>506.75</ele>
        <time>2013-12-11T16:06:46Z</time>
      </trkpt>
      <trkpt lat="43.03278" lon="-0.07939">
        <ele>506.75</ele>
        <time>2013-12-11T16:07:06Z</time>
      </trkpt>
      <trkpt lat="43.03278" lon="-0.07939">
        <ele>507.23</ele>
        <time>2013-12-11T16:07:34Z</time>
      </trkpt>
      <trkpt lat="43.03278" lon="-0.07942">
        <ele>507.23</ele>
        <time>2013-12-11T16:08:05Z</time>
      </trkpt>
      <trkpt lat="43.03279" lon="-0.07942">
        <ele>507.23</ele>
        <time>2013-12-11T16:08:37Z</time>
      </trkpt>
      <trkpt lat="43.03279" lon="-0.07941">
        <ele>506.75</ele>
        <time>2013-12-11T16:08:57Z</time>
      </trkpt>
      <trkpt lat="43.03279" lon="-0.07941">
        <ele>506.75</ele>
        <time>2013-12-11T16:09:18Z</time>
      </trkpt>
      <trkpt lat="43.03278" lon="-0.0794">
        <ele>507.23</ele>
        <time>2013-12-11T16:09:45Z</time>
      </trkpt>
      <trkpt lat="43.03279" lon="-0.07937">
        <ele>507.23</ele>
        <time>2013-12-11T16:10:20Z</time>
      </trkpt>
      <trkpt lat="43.03278" lon="-0.07935">
        <ele>507.71</ele>
        <time>2013-12-11T16:10:51Z</time>
      </trkpt>
      <trkpt lat="43.03278" lon="-0.07935">
        <ele>507.23</ele>
        <time>2013-12-11T16:11:22Z</time>
      </trkpt>
      <trkpt lat="43.03277" lon="-0.07936">
        <ele>507.71</ele>
        <time>2013-12-11T16:12:01Z</time>
      </trkpt>
      <trkpt lat="43.03276" lon="-0.07935">
        <ele>508.67</ele>
        <time>2013-12-11T16:12:39Z</time>
      </trkpt>
      <trkpt lat="43.03276" lon="-0.07936">
        <ele>508.67</ele>
        <time>2013-12-11T16:13:08Z</time>
      </trkpt>
      <trkpt lat="43.03277" lon="-0.07934">
        <ele>509.64</ele>
        <time>2013-12-11T16:13:32Z</time>
      </trkpt>
      <trkpt lat="43.03277" lon="-0.07935">
        <ele>509.64</ele>
        <time>2013-12-11T16:13:48Z</time>
      </trkpt>
      <trkpt lat="43.03279" lon="-0.07936">
        <ele>509.64</ele>
        <time>2013-12-11T16:14:08Z</time>
      </trkpt>
      <trkpt lat="43.03281" lon="-0.07934">
        <ele>509.16</ele>
        <time>2013-12-11T16:14:10Z</time>
      </trkpt>
      <trkpt lat="43.03286" lon="-0.0791">
        <ele>510.12</ele>
        <time>2013-12-11T16:14:20Z</time>
      </trkpt>
      <trkpt lat="43.03289" lon="-0.0789">
        <ele>513</ele>
        <time>2013-12-11T16:14:29Z</time>
      </trkpt>
      <trkpt lat="43.0329" lon="-0.0788">
        <ele>513.48</ele>
        <time>2013-12-11T16:14:34Z</time>
      </trkpt>
      <trkpt lat="43.03291" lon="-0.07875">
        <ele>513.48</ele>
        <time>2013-12-11T16:14:37Z</time>
      </trkpt>
      <trkpt lat="43.03294" lon="-0.07857">
        <ele>513.48</ele>
        <time>2013-12-11T16:14:47Z</time>
      </trkpt>
      <trkpt lat="43.03297" lon="-0.07853">
        <ele>513</ele>
        <time>2013-12-11T16:14:49Z</time>
      </trkpt>
      <trkpt lat="43.03306" lon="-0.07824">
        <ele>512.52</ele>
        <time>2013-12-11T16:15:00Z</time>
      </trkpt>
      <trkpt lat="43.03308" lon="-0.07812">
        <ele>512.04</ele>
        <time>2013-12-11T16:15:04Z</time>
      </trkpt>
      <trkpt lat="43.03313" lon="-0.07772">
        <ele>513.96</ele>
        <time>2013-12-11T16:15:17Z</time>
      </trkpt>
      <trkpt lat="43.03319" lon="-0.07763">
        <ele>516.37</ele>
        <time>2013-12-11T16:15:21Z</time>
      </trkpt>
      <trkpt lat="43.0333" lon="-0.07751">
        <ele>519.73</ele>
        <time>2013-12-11T16:15:32Z</time>
      </trkpt>
      <trkpt lat="43.03333" lon="-0.07748">
        <ele>520.21</ele>
        <time>2013-12-11T16:15:35Z</time>
      </trkpt>
      <trkpt lat="43.03341" lon="-0.07741">
        <ele>522.13</ele>
        <time>2013-12-11T16:15:47Z</time>
      </trkpt>
      <trkpt lat="43.03347" lon="-0.07743">
        <ele>522.61</ele>
        <time>2013-12-11T16:15:55Z</time>
      </trkpt>
      <trkpt lat="43.0336" lon="-0.07733">
        <ele>526.46</ele>
        <time>2013-12-11T16:16:07Z</time>
      </trkpt>
      <trkpt lat="43.03362" lon="-0.07732">
        <ele>526.94</ele>
        <time>2013-12-11T16:16:10Z</time>
      </trkpt>
      <trkpt lat="43.03366" lon="-0.07724">
        <ele>528.38</ele>
        <time>2013-12-11T16:16:20Z</time>
      </trkpt>
      <trkpt lat="43.03372" lon="-0.07711">
        <ele>529.82</ele>
        <time>2013-12-11T16:16:32Z</time>
      </trkpt>
      <trkpt lat="43.03374" lon="-0.07704">
        <ele>528.38</ele>
        <time>2013-12-11T16:16:35Z</time>
      </trkpt>
      <trkpt lat="43.03389" lon="-0.07689">
        <ele>528.86</ele>
        <time>2013-12-11T16:16:46Z</time>
      </trkpt>
      <trkpt lat="43.0339" lon="-0.0769">
        <ele>529.34</ele>
        <time>2013-12-11T16:17:05Z</time>
      </trkpt>
      <trkpt lat="43.0339" lon="-0.0769">
        <ele>529.34</ele>
        <time>2013-12-11T16:17:20Z</time>
      </trkpt>
      <trkpt lat="43.03405" lon="-0.07699">
        <ele>526.94</ele>
        <time>2013-12-11T16:17:26Z</time>
      </trkpt>
      <trkpt lat="43.03412" lon="-0.07707">
        <ele>526.46</ele>
        <time>2013-12-11T16:17:29Z</time>
      </trkpt>
      <trkpt lat="43.03426" lon="-0.07702">
        <ele>529.34</ele>
        <time>2013-12-11T16:17:37Z</time>
      </trkpt>
      <trkpt lat="43.03452" lon="-0.07686">
        <ele>531.27</ele>
        <time>2013-12-11T16:17:50Z</time>
      </trkpt>
      <trkpt lat="43.03458" lon="-0.07679">
        <ele>531.27</ele>
        <time>2013-12-11T16:18:06Z</time>
      </trkpt>
      <trkpt lat="43.03458" lon="-0.07678">
        <ele>531.75</ele>
        <time>2013-12-11T16:18:23Z</time>
      </trkpt>
      <trkpt lat="43.03464" lon="-0.07662">
        <ele>528.86</ele>
        <time>2013-12-11T16:18:32Z</time>
      </trkpt>
      <trkpt lat="43.03466" lon="-0.07658">
        <ele>527.9</ele>
        <time>2013-12-11T16:18:34Z</time>
      </trkpt>
      <trkpt lat="43.0347" lon="-0.07657">
        <ele>526.46</ele>
        <time>2013-12-11T16:18:36Z</time>
      </trkpt>
      <trkpt lat="43.03473" lon="-0.07656">
        <ele>525.98</ele>
        <time>2013-12-11T16:18:37Z</time>
      </trkpt>
      <trkpt lat="43.03481" lon="-0.07649">
        <ele>524.06</ele>
        <time>2013-12-11T16:18:40Z</time>
      </trkpt>
      <trkpt lat="43.03493" lon="-0.07638">
        <ele>518.77</ele>
        <time>2013-12-11T16:18:45Z</time>
      </trkpt>
      <trkpt lat="43.03497" lon="-0.07629">
        <ele>515.88</ele>
        <time>2013-12-11T16:18:48Z</time>
      </trkpt>
      <trkpt lat="43.03503" lon="-0.07626">
        <ele>512.52</ele>
        <time>2013-12-11T16:18:51Z</time>
      </trkpt>
      <trkpt lat="43.03508" lon="-0.07627">
        <ele>509.16</ele>
        <time>2013-12-11T16:18:54Z</time>
      </trkpt>
      <trkpt lat="43.03511" lon="-0.07622">
        <ele>505.79</ele>
        <time>2013-12-11T16:18:56Z</time>
      </trkpt>
      <trkpt lat="43.03512" lon="-0.07618">
        <ele>506.27</ele>
        <time>2013-12-11T16:18:57Z</time>
      </trkpt>
      <trkpt lat="43.03517" lon="-0.07616">
        <ele>505.79</ele>
        <time>2013-12-11T16:19:03Z</time>
      </trkpt>
      <trkpt lat="43.03522" lon="-0.07617">
        <ele>505.31</ele>
        <time>2013-12-11T16:19:18Z</time>
      </trkpt>
      <trkpt lat="43.03527" lon="-0.0762">
        <ele>503.87</ele>
        <time>2013-12-11T16:19:26Z</time>
      </trkpt>
      <trkpt lat="43.0353" lon="-0.07637">
        <ele>499.06</ele>
        <time>2013-12-11T16:19:31Z</time>
      </trkpt>
      <trkpt lat="43.03531" lon="-0.07643">
        <ele>498.1</ele>
        <time>2013-12-11T16:19:32Z</time>
      </trkpt>
      <trkpt lat="43.03535" lon="-0.07648">
        <ele>496.66</ele>
        <time>2013-12-11T16:19:34Z</time>
      </trkpt>
      <trkpt lat="43.0355" lon="-0.07629">
        <ele>492.33</ele>
        <time>2013-12-11T16:19:39Z</time>
      </trkpt>
      <trkpt lat="43.03556" lon="-0.07618">
        <ele>490.89</ele>
        <time>2013-12-11T16:19:41Z</time>
      </trkpt>
      <trkpt lat="43.03561" lon="-0.07604">
        <ele>490.41</ele>
        <time>2013-12-11T16:19:43Z</time>
      </trkpt>
      <trkpt lat="43.03567" lon="-0.07594">
        <ele>488.97</ele>
        <time>2013-12-11T16:19:45Z</time>
      </trkpt>
      <trkpt lat="43.03575" lon="-0.07583">
        <ele>487.53</ele>
        <time>2013-12-11T16:19:48Z</time>
      </trkpt>
      <trkpt lat="43.03587" lon="-0.07572">
        <ele>485.12</ele>
        <time>2013-12-11T16:19:51Z</time>
      </trkpt>
      <trkpt lat="43.03588" lon="-0.07565">
        <ele>484.64</ele>
        <time>2013-12-11T16:20:00Z</time>
      </trkpt>
      <trkpt lat="43.03589" lon="-0.07565">
        <ele>485.12</ele>
        <time>2013-12-11T16:20:10Z</time>
      </trkpt>
      <trkpt lat="43.03576" lon="-0.07565">
        <ele>482.24</ele>
        <time>2013-12-11T16:20:17Z</time>
      </trkpt>
      <trkpt lat="43.03554" lon="-0.07566">
        <ele>479.84</ele>
        <time>2013-12-11T16:20:25Z</time>
      </trkpt>
      <trkpt lat="43.0355" lon="-0.07565">
        <ele>479.84</ele>
        <time>2013-12-11T16:20:27Z</time>
      </trkpt>
      <trkpt lat="43.03529" lon="-0.07553">
        <ele>475.99</ele>
        <time>2013-12-11T16:20:33Z</time>
      </trkpt>
      <trkpt lat="43.03517" lon="-0.07547">
        <ele>472.63</ele>
        <time>2013-12-11T16:20:36Z</time>
      </trkpt>
      <trkpt lat="43.03493" lon="-0.07544">
        <ele>471.66</ele>
        <time>2013-12-11T16:20:42Z</time>
      </trkpt>
      <trkpt lat="43.03474" lon="-0.07532">
        <ele>467.82</ele>
        <time>2013-12-11T16:20:48Z</time>
      </trkpt>
      <trkpt lat="43.03467" lon="-0.07528">
        <ele>467.34</ele>
        <time>2013-12-11T16:20:50Z</time>
      </trkpt>
      <trkpt lat="43.03453" lon="-0.07522">
        <ele>466.86</ele>
        <time>2013-12-11T16:20:55Z</time>
      </trkpt>
      <trkpt lat="43.03425" lon="-0.07503">
        <ele>463.97</ele>
        <time>2013-12-11T16:21:03Z</time>
      </trkpt>
      <trkpt lat="43.03416" lon="-0.07496">
        <ele>461.09</ele>
        <time>2013-12-11T16:21:05Z</time>
      </trkpt>
      <trkpt lat="43.03395" lon="-0.07482">
        <ele>455.32</ele>
        <time>2013-12-11T16:21:10Z</time>
      </trkpt>
      <trkpt lat="43.03387" lon="-0.07473">
        <ele>452.92</ele>
        <time>2013-12-11T16:21:16Z</time>
      </trkpt>
      <trkpt lat="43.03389" lon="-0.07467">
        <ele>451.96</ele>
        <time>2013-12-11T16:21:26Z</time>
      </trkpt>
      <trkpt lat="43.03389" lon="-0.07467">
        <ele>451</ele>
        <time>2013-12-11T16:21:53Z</time>
      </trkpt>
      <trkpt lat="43.03395" lon="-0.07461">
        <ele>450.03</ele>
        <time>2013-12-11T16:21:57Z</time>
      </trkpt>
      <trkpt lat="43.03403" lon="-0.07447">
        <ele>446.67</ele>
        <time>2013-12-11T16:22:01Z</time>
      </trkpt>
      <trkpt lat="43.03399" lon="-0.07443">
        <ele>445.23</ele>
        <time>2013-12-11T16:22:03Z</time>
      </trkpt>
      <trkpt lat="43.03379" lon="-0.07439">
        <ele>439.94</ele>
        <time>2013-12-11T16:22:08Z</time>
      </trkpt>
      <trkpt lat="43.03365" lon="-0.0743">
        <ele>435.61</ele>
        <time>2013-12-11T16:22:12Z</time>
      </trkpt>
      <trkpt lat="43.03361" lon="-0.07426">
        <ele>433.69</ele>
        <time>2013-12-11T16:22:14Z</time>
      </trkpt>
      <trkpt lat="43.03362" lon="-0.07413">
        <ele>428.89</ele>
        <time>2013-12-11T16:22:18Z</time>
      </trkpt>
      <trkpt lat="43.03374" lon="-0.07394">
        <ele>423.12</ele>
        <time>2013-12-11T16:22:23Z</time>
      </trkpt>
      <trkpt lat="43.03381" lon="-0.0738">
        <ele>419.75</ele>
        <time>2013-12-11T16:22:26Z</time>
      </trkpt>
      <trkpt lat="43.03385" lon="-0.07363">
        <ele>415.43</ele>
        <time>2013-12-11T16:22:29Z</time>
      </trkpt>
      <trkpt lat="43.03387" lon="-0.0735">
        <ele>412.06</ele>
        <time>2013-12-11T16:22:31Z</time>
      </trkpt>
      <trkpt lat="43.03393" lon="-0.07332">
        <ele>408.7</ele>
        <time>2013-12-11T16:22:34Z</time>
      </trkpt>
      <trkpt lat="43.03398" lon="-0.07313">
        <ele>405.33</ele>
        <time>2013-12-11T16:22:36Z</time>
      </trkpt>
      <trkpt lat="43.03412" lon="-0.07287">
        <ele>402.93</ele>
        <time>2013-12-11T16:22:40Z</time>
      </trkpt>
      <trkpt lat="43.03404" lon="-0.07255">
        <ele>401.97</ele>
        <time>2013-12-11T16:22:46Z</time>
      </trkpt>
      <trkpt lat="43.03401" lon="-0.07251">
        <ele>401.97</ele>
        <time>2013-12-11T16:22:47Z</time>
      </trkpt>
      <trkpt lat="43.03382" lon="-0.07226">
        <ele>402.93</ele>
        <time>2013-12-11T16:22:58Z</time>
      </trkpt>
      <trkpt lat="43.03384" lon="-0.07226">
        <ele>401.01</ele>
        <time>2013-12-11T16:23:18Z</time>
      </trkpt>
      <trkpt lat="43.03383" lon="-0.07225">
        <ele>400.53</ele>
        <time>2013-12-11T16:23:51Z</time>
      </trkpt>
      <trkpt lat="43.03379" lon="-0.07223">
        <ele>401.97</ele>
        <time>2013-12-11T16:24:12Z</time>
      </trkpt>
      <trkpt lat="43.03369" lon="-0.07229">
        <ele>401.97</ele>
        <time>2013-12-11T16:24:16Z</time>
      </trkpt>
      <trkpt lat="43.03324" lon="-0.07265">
        <ele>401.49</ele>
        <time>2013-12-11T16:24:28Z</time>
      </trkpt>
      <trkpt lat="43.03299" lon="-0.07287">
        <ele>401.01</ele>
        <time>2013-12-11T16:24:34Z</time>
      </trkpt>
      <trkpt lat="43.03244" lon="-0.0733">
        <ele>401.49</ele>
        <time>2013-12-11T16:24:49Z</time>
      </trkpt>
      <trkpt lat="43.03197" lon="-0.07375">
        <ele>404.37</ele>
        <time>2013-12-11T16:25:04Z</time>
      </trkpt>
      <trkpt lat="43.03166" lon="-0.07426">
        <ele>405.81</ele>
        <time>2013-12-11T16:25:17Z</time>
      </trkpt>
      <trkpt lat="43.03121" lon="-0.07516">
        <ele>404.85</ele>
        <time>2013-12-11T16:25:36Z</time>
      </trkpt>
      <trkpt lat="43.03113" lon="-0.0753">
        <ele>405.81</ele>
        <time>2013-12-11T16:25:39Z</time>
      </trkpt>
      <trkpt lat="43.0307" lon="-0.07616">
        <ele>405.33</ele>
        <time>2013-12-11T16:25:55Z</time>
      </trkpt>
      <trkpt lat="43.03046" lon="-0.07665">
        <ele>405.33</ele>
        <time>2013-12-11T16:26:04Z</time>
      </trkpt>
      <trkpt lat="43.03015" lon="-0.07725">
        <ele>406.77</ele>
        <time>2013-12-11T16:26:15Z</time>
      </trkpt>
      <trkpt lat="43.03008" lon="-0.07738">
        <ele>407.26</ele>
        <time>2013-12-11T16:26:17Z</time>
      </trkpt>
      <trkpt lat="43.02983" lon="-0.07794">
        <ele>408.7</ele>
        <time>2013-12-11T16:26:26Z</time>
      </trkpt>
      <trkpt lat="43.02972" lon="-0.07827">
        <ele>409.18</ele>
        <time>2013-12-11T16:26:31Z</time>
      </trkpt>
      <trkpt lat="43.0297" lon="-0.07855">
        <ele>410.14</ele>
        <time>2013-12-11T16:26:35Z</time>
      </trkpt>
      <trkpt lat="43.02971" lon="-0.07875">
        <ele>410.62</ele>
        <time>2013-12-11T16:26:38Z</time>
      </trkpt>
      <trkpt lat="43.02994" lon="-0.07982">
        <ele>410.62</ele>
        <time>2013-12-11T16:26:55Z</time>
      </trkpt>
      <trkpt lat="43.02995" lon="-0.07989">
        <ele>410.62</ele>
        <time>2013-12-11T16:26:56Z</time>
      </trkpt>
      <trkpt lat="43.03" lon="-0.08016">
        <ele>411.1</ele>
        <time>2013-12-11T16:27:00Z</time>
      </trkpt>
      <trkpt lat="43.03" lon="-0.08073">
        <ele>410.62</ele>
        <time>2013-12-11T16:27:08Z</time>
      </trkpt>
      <trkpt lat="43.02997" lon="-0.08179">
        <ele>411.1</ele>
        <time>2013-12-11T16:27:23Z</time>
      </trkpt>
      <trkpt lat="43.02994" lon="-0.08276">
        <ele>410.62</ele>
        <time>2013-12-11T16:27:36Z</time>
      </trkpt>
      <trkpt lat="43.02997" lon="-0.08385">
        <ele>411.1</ele>
        <time>2013-12-11T16:27:50Z</time>
      </trkpt>
      <trkpt lat="43.03006" lon="-0.08445">
        <ele>411.58</ele>
        <time>2013-12-11T16:27:58Z</time>
      </trkpt>
      <trkpt lat="43.03018" lon="-0.08507">
        <ele>412.06</ele>
        <time>2013-12-11T16:28:08Z</time>
      </trkpt>
      <trkpt lat="43.0302" lon="-0.08525">
        <ele>412.54</ele>
        <time>2013-12-11T16:28:11Z</time>
      </trkpt>
      <trkpt lat="43.03005" lon="-0.08637">
        <ele>411.58</ele>
        <time>2013-12-11T16:28:28Z</time>
      </trkpt>
      <trkpt lat="43.02982" lon="-0.08754">
        <ele>412.06</ele>
        <time>2013-12-11T16:28:45Z</time>
      </trkpt>
      <trkpt lat="43.02963" lon="-0.08848">
        <ele>413.98</ele>
        <time>2013-12-11T16:28:59Z</time>
      </trkpt>
      <trkpt lat="43.02945" lon="-0.08944">
        <ele>417.35</ele>
        <time>2013-12-11T16:29:13Z</time>
      </trkpt>
      <trkpt lat="43.02936" lon="-0.08992">
        <ele>418.79</ele>
        <time>2013-12-11T16:29:20Z</time>
      </trkpt>
      <trkpt lat="43.02934" lon="-0.08999">
        <ele>418.79</ele>
        <time>2013-12-11T16:29:21Z</time>
      </trkpt>
      <trkpt lat="43.02929" lon="-0.0902">
        <ele>418.31</ele>
        <time>2013-12-11T16:29:24Z</time>
      </trkpt>
      <trkpt lat="43.02906" lon="-0.09082">
        <ele>419.27</ele>
        <time>2013-12-11T16:29:34Z</time>
      </trkpt>
      <trkpt lat="43.02874" lon="-0.0913">
        <ele>420.23</ele>
        <time>2013-12-11T16:29:44Z</time>
      </trkpt>
      <trkpt lat="43.02824" lon="-0.09186">
        <ele>421.19</ele>
        <time>2013-12-11T16:29:59Z</time>
      </trkpt>
      <trkpt lat="43.02815" lon="-0.09195">
        <ele>421.19</ele>
        <time>2013-12-11T16:30:02Z</time>
      </trkpt>
      <trkpt lat="43.02799" lon="-0.09212">
        <ele>421.19</ele>
        <time>2013-12-11T16:30:07Z</time>
      </trkpt>
      <trkpt lat="43.02789" lon="-0.09223">
        <ele>421.19</ele>
        <time>2013-12-11T16:30:10Z</time>
      </trkpt>
      <trkpt lat="43.02735" lon="-0.09273">
        <ele>422.16</ele>
        <time>2013-12-11T16:30:24Z</time>
      </trkpt>
      <trkpt lat="43.02721" lon="-0.09282">
        <ele>421.68</ele>
        <time>2013-12-11T16:30:27Z</time>
      </trkpt>
      <trkpt lat="43.02712" lon="-0.09288">
        <ele>422.16</ele>
        <time>2013-12-11T16:30:29Z</time>
      </trkpt>
      <trkpt lat="43.02635" lon="-0.09345">
        <ele>421.68</ele>
        <time>2013-12-11T16:30:45Z</time>
      </trkpt>
      <trkpt lat="43.02576" lon="-0.09389">
        <ele>421.68</ele>
        <time>2013-12-11T16:30:57Z</time>
      </trkpt>
      <trkpt lat="43.02552" lon="-0.09382">
        <ele>420.23</ele>
        <time>2013-12-11T16:31:03Z</time>
      </trkpt>
      <trkpt lat="43.02552" lon="-0.09383">
        <ele>420.23</ele>
        <time>2013-12-11T16:31:04Z</time>
      </trkpt>
      <trkpt lat="43.02537" lon="-0.09401">
        <ele>419.27</ele>
        <time>2013-12-11T16:31:12Z</time>
      </trkpt>
      <trkpt lat="43.02489" lon="-0.09446">
        <ele>418.31</ele>
        <time>2013-12-11T16:31:24Z</time>
      </trkpt>
      <trkpt lat="43.02421" lon="-0.09477">
        <ele>417.35</ele>
        <time>2013-12-11T16:31:37Z</time>
      </trkpt>
      <trkpt lat="43.02349" lon="-0.09499">
        <ele>416.39</ele>
        <time>2013-12-11T16:31:50Z</time>
      </trkpt>
      <trkpt lat="43.02278" lon="-0.09519">
        <ele>414.95</ele>
        <time>2013-12-11T16:32:02Z</time>
      </trkpt>
      <trkpt lat="43.02234" lon="-0.09533">
        <ele>413.5</ele>
        <time>2013-12-11T16:32:09Z</time>
      </trkpt>
      <trkpt lat="43.02131" lon="-0.09568">
        <ele>411.1</ele>
        <time>2013-12-11T16:32:24Z</time>
      </trkpt>
      <trkpt lat="43.02036" lon="-0.09596">
        <ele>410.62</ele>
        <time>2013-12-11T16:32:38Z</time>
      </trkpt>
      <trkpt lat="43.01991" lon="-0.09608">
        <ele>410.62</ele>
        <time>2013-12-11T16:32:45Z</time>
      </trkpt>
      <trkpt lat="43.01959" lon="-0.09612">
        <ele>411.1</ele>
        <time>2013-12-11T16:32:51Z</time>
      </trkpt>
      <trkpt lat="43.01936" lon="-0.09613">
        <ele>411.58</ele>
        <time>2013-12-11T16:32:57Z</time>
      </trkpt>
      <trkpt lat="43.01932" lon="-0.09571">
        <ele>412.06</ele>
        <time>2013-12-11T16:33:06Z</time>
      </trkpt>
      <trkpt lat="43.0192" lon="-0.09573">
        <ele>412.06</ele>
        <time>2013-12-11T16:33:12Z</time>
      </trkpt>
      <trkpt lat="43.019" lon="-0.09594">
        <ele>411.58</ele>
        <time>2013-12-11T16:33:18Z</time>
      </trkpt>
      <trkpt lat="43.01864" lon="-0.09626">
        <ele>411.58</ele>
        <time>2013-12-11T16:33:27Z</time>
      </trkpt>
      <trkpt lat="43.01824" lon="-0.09654">
        <ele>412.06</ele>
        <time>2013-12-11T16:33:36Z</time>
      </trkpt>
      <trkpt lat="43.01777" lon="-0.09674">
        <ele>412.54</ele>
        <time>2013-12-11T16:33:48Z</time>
      </trkpt>
      <trkpt lat="43.01698" lon="-0.09696">
        <ele>413.02</ele>
        <time>2013-12-11T16:34:05Z</time>
      </trkpt>
      <trkpt lat="43.01617" lon="-0.09717">
        <ele>413.5</ele>
        <time>2013-12-11T16:34:22Z</time>
      </trkpt>
      <trkpt lat="43.01555" lon="-0.09734">
        <ele>413.98</ele>
        <time>2013-12-11T16:34:35Z</time>
      </trkpt>
      <trkpt lat="43.01466" lon="-0.09758">
        <ele>415.91</ele>
        <time>2013-12-11T16:34:53Z</time>
      </trkpt>
      <trkpt lat="43.01456" lon="-0.09761">
        <ele>415.43</ele>
        <time>2013-12-11T16:34:55Z</time>
      </trkpt>
      <trkpt lat="43.01386" lon="-0.09775">
        <ele>415.91</ele>
        <time>2013-12-11T16:35:09Z</time>
      </trkpt>
      <trkpt lat="43.01362" lon="-0.09777">
        <ele>416.87</ele>
        <time>2013-12-11T16:35:14Z</time>
      </trkpt>
      <trkpt lat="43.013" lon="-0.09781">
        <ele>417.83</ele>
        <time>2013-12-11T16:35:28Z</time>
      </trkpt>
      <trkpt lat="43.01291" lon="-0.09781">
        <ele>417.83</ele>
        <time>2013-12-11T16:35:30Z</time>
      </trkpt>
      <trkpt lat="43.0121" lon="-0.09789">
        <ele>415.91</ele>
        <time>2013-12-11T16:35:45Z</time>
      </trkpt>
      <trkpt lat="43.0117" lon="-0.0979">
        <ele>416.39</ele>
        <time>2013-12-11T16:35:52Z</time>
      </trkpt>
      <trkpt lat="43.01159" lon="-0.09791">
        <ele>416.87</ele>
        <time>2013-12-11T16:35:54Z</time>
      </trkpt>
      <trkpt lat="43.0114" lon="-0.09793">
        <ele>417.83</ele>
        <time>2013-12-11T16:35:58Z</time>
      </trkpt>
      <trkpt lat="43.01095" lon="-0.09785">
        <ele>418.31</ele>
        <time>2013-12-11T16:36:07Z</time>
      </trkpt>
      <trkpt lat="43.01032" lon="-0.09764">
        <ele>421.19</ele>
        <time>2013-12-11T16:36:22Z</time>
      </trkpt>
      <trkpt lat="43.00973" lon="-0.09727">
        <ele>423.12</ele>
        <time>2013-12-11T16:36:37Z</time>
      </trkpt>
      <trkpt lat="43.00916" lon="-0.0967">
        <ele>424.08</ele>
        <time>2013-12-11T16:36:53Z</time>
      </trkpt>
      <trkpt lat="43.00857" lon="-0.09605">
        <ele>424.08</ele>
        <time>2013-12-11T16:37:07Z</time>
      </trkpt>
      <trkpt lat="43.00817" lon="-0.09556">
        <ele>423.6</ele>
        <time>2013-12-11T16:37:16Z</time>
      </trkpt>
      <trkpt lat="43.00796" lon="-0.09531">
        <ele>424.08</ele>
        <time>2013-12-11T16:37:21Z</time>
      </trkpt>
      <trkpt lat="43.00762" lon="-0.0949">
        <ele>424.56</ele>
        <time>2013-12-11T16:37:32Z</time>
      </trkpt>
      <trkpt lat="43.0075" lon="-0.095">
        <ele>425.04</ele>
        <time>2013-12-11T16:37:40Z</time>
      </trkpt>
      <trkpt lat="43.00738" lon="-0.09499">
        <ele>424.56</ele>
        <time>2013-12-11T16:37:47Z</time>
      </trkpt>
      <trkpt lat="43.00732" lon="-0.09497">
        <ele>424.56</ele>
        <time>2013-12-11T16:37:50Z</time>
      </trkpt>
      <trkpt lat="43.00722" lon="-0.09493">
        <ele>425.04</ele>
        <time>2013-12-11T16:38:00Z</time>
      </trkpt>
      <trkpt lat="43.00721" lon="-0.09493">
        <ele>425.04</ele>
        <time>2013-12-11T16:38:18Z</time>
      </trkpt>
    </trkseg>
  </trk>
</gpx>